Observation data for Tahoka on 05/24/2019      Previous  Date  Next       Current Mesonet Observations  Soil Data  Daily Summary Page  Observations in Plain Language
KTAS 240500Z 12005KT 24/19 A2992 RMK A01 T02350188  RH  075%=      5-min Rain = 0
KTAS 240501Z 13006KT 23/19 A2992 RMK A01 T02340188  RH  075%=      5-min Rain = 0
KTAS 240502Z 13005KT 23/19 A2992 RMK A01 T02340188  RH  075%=      5-min Rain = 0
KTAS 240503Z 13006KT 23/19 A2992 RMK A01 T02340188  RH  075%=      5-min Rain = 0
KTAS 240504Z 12006KT 23/19 A2992 RMK A01 T02340188  RH  075%=      5-min Rain = 0
KTAS 240505Z 11005KT 23/19 A2992 RMK A01 T02340187  RH  075%=      5-min Rain = 0
KTAS 240506Z 12006KT 23/19 A2992 RMK A01 T02340187  RH  075%=      5-min Rain = 0
KTAS 240507Z 12005KT 24/19 A2992 RMK A01 T02350187  RH  075%=      5-min Rain = 0
KTAS 240508Z 12004KT 24/19 A2992 RMK A01 T02350187  RH  075%=      5-min Rain = 0
KTAS 240509Z 12004KT 24/19 A2992 RMK A01 T02350187  RH  075%=      5-min Rain = 0
KTAS 240510Z 12004KT 24/19 A2992 RMK A01 T02350188  RH  075%=      5-min Rain = 0
KTAS 240511Z 12004KT 24/19 A2992 RMK A01 T02350188  RH  075%=      5-min Rain = 0
KTAS 240512Z 11004KT 23/19 A2992 RMK A01 T02340188  RH  075%=      5-min Rain = 0
KTAS 240513Z 11004KT 23/19 A2992 RMK A01 T02340188  RH  075%=      5-min Rain = 0
KTAS 240514Z 11003KT 23/19 A2992 RMK A01 T02340188  RH  076%=      5-min Rain = 0
KTAS 240515Z 11004KT 23/19 A2993 RMK A01 T02330188  RH  076%=      5-min Rain = 0
KTAS 240516Z 12004KT 23/19 A2993 RMK A01 T02330188  RH  076%=      5-min Rain = 0
KTAS 240517Z 12003KT 23/19 A2993 RMK A01 T02330188  RH  076%=      5-min Rain = 0
KTAS 240518Z 11003KT 23/19 A2993 RMK A01 T02330189  RH  076%=      5-min Rain = 0
KTAS 240519Z 11003KT 23/19 A2993 RMK A01 T02320189  RH  077%=      5-min Rain = 0
KTAS 240520Z 11003KT 23/19 A2993 RMK A01 T02320189  RH  077%=      5-min Rain = 0
KTAS 240521Z 11004KT 23/19 A2993 RMK A01 T02310189  RH  077%=      5-min Rain = 0
KTAS 240522Z 11004KT 23/19 A2993 RMK A01 T02310189  RH  077%=      5-min Rain = 0
KTAS 240523Z 11005KT 23/19 A2993 RMK A01 T02310189  RH  077%=      5-min Rain = 0
KTAS 240524Z 11004KT 23/19 A2993 RMK A01 T02310189  RH  077%=      5-min Rain = 0
KTAS 240525Z 11004KT 23/19 A2993 RMK A01 T02310189  RH  077%=      5-min Rain = 0
KTAS 240526Z 11004KT 23/19 A2993 RMK A01 T02310189  RH  077%=      5-min Rain = 0
KTAS 240527Z 10004KT 23/19 A2993 RMK A01 T02310189  RH  077%=      5-min Rain = 0
KTAS 240528Z 10003KT 23/19 A2993 RMK A01 T02310189  RH  077%=      5-min Rain = 0
KTAS 240529Z 11003KT 23/19 A2993 RMK A01 T02310189  RH  077%=      5-min Rain = 0
KTAS 240530Z 09003KT 23/19 A2993 RMK A01 T02310189  RH  077%=      5-min Rain = 0
KTAS 240531Z 09003KT 23/19 A2993 RMK A01 T02310189  RH  077%=      5-min Rain = 0
KTAS 240532Z 09003KT 23/19 A2993 RMK A01 T02310189  RH  077%=      5-min Rain = 0
KTAS 240533Z 09003KT 23/19 A2993 RMK A01 T02310189  RH  077%=      5-min Rain = 0
KTAS 240534Z 09003KT 23/19 A2993 RMK A01 T02310189  RH  077%=      5-min Rain = 0
KTAS 240535Z 08003KT 23/19 A2993 RMK A01 T02300188  RH  077%=      5-min Rain = 0
KTAS 240536Z 08004KT 23/19 A2993 RMK A01 T02310188  RH  077%=      5-min Rain = 0
KTAS 240537Z 07003KT 23/19 A2993 RMK A01 T02310189  RH  077%=      5-min Rain = 0
KTAS 240538Z 06003KT 23/19 A2993 RMK A01 T02310189  RH  077%=      5-min Rain = 0
KTAS 240539Z 05003KT 23/19 A2993 RMK A01 T02310190  RH  078%=      5-min Rain = 0
KTAS 240540Z 05003KT 23/19 A2993 RMK A01 T02300190  RH  078%=      5-min Rain = 0
KTAS 240541Z 05003KT 23/19 A2993 RMK A01 T02300190  RH  078%=      5-min Rain = 0
KTAS 240542Z 04003KT 23/19 A2993 RMK A01 T02290190  RH  079%=      5-min Rain = 0
KTAS 240543Z 03003KT 23/19 A2993 RMK A01 T02290191  RH  079%=      5-min Rain = 0
KTAS 240544Z 02004KT 23/19 A2993 RMK A01 T02280191  RH  080%=      5-min Rain = 0
KTAS 240545Z 02005KT 23/19 A2993 RMK A01 T02270191  RH  080%=      5-min Rain = 0
KTAS 240546Z 01005KT 23/19 A2994 RMK A01 T02260191  RH  081%=      5-min Rain = 0
KTAS 240547Z 01006KT 23/19 A2994 RMK A01 T02260191  RH  081%=      5-min Rain = 0
KTAS 240548Z 36007KT 23/19 A2994 RMK A01 T02250191  RH  081%=      5-min Rain = 0
KTAS 240549Z 35009G17KT 23/19 A2994 RMK A01 T02250191  RH  081%=      5-min Rain = 0
KTAS 240550Z 34015KT 22/16 A2994 RMK A01 T02190157  RH  068%=      5-min Rain = 0
KTAS 240551Z 33012KT 21/12 A2994 RMK A01 T02110124  RH  058%=      5-min Rain = 0
KTAS 240552Z 34009KT 21/12 A2994 RMK A01 T02050119  RH  058%=      5-min Rain = 0
KTAS 240553Z 35009KT 20/12 A2994 RMK A01 T02020119  RH  059%=      5-min Rain = 0
KTAS 240554Z 35011KT 20/12 A2995 RMK A01 T02000118  RH  059%=      5-min Rain = 0
KTAS 240555Z 35012KT 20/12 A2995 RMK A01 T01980118  RH  060%=      5-min Rain = 0
KTAS 240556Z 34012G17KT 20/12 A2995 RMK A01 T01970117  RH  060%=      5-min Rain = 0
KTAS 240557Z 33011KT 20/12 A2995 RMK A01 T01960118  RH  060%=      5-min Rain = 0
KTAS 240558Z 33011KT 20/12 A2995 RMK A01 T01950117  RH  061%=      5-min Rain = 0
KTAS 240559Z 33013KT 20/12 A2995 RMK A01 T01950116  RH  060%=      5-min Rain = 0
KTAS 240600Z 33011KT 20/12 A2995 RMK A01 T01950115  RH  060%=      5-min Rain = 0
KTAS 240601Z 33011KT 20/12 A2995 RMK A01 T01950116  RH  060%=      5-min Rain = 0
KTAS 240602Z 33012KT 19/12 A2995 RMK A01 T01940116  RH  061%=      5-min Rain = 0
KTAS 240603Z 32011KT 19/12 A2996 RMK A01 T01940118  RH  061%=      5-min Rain = 0
KTAS 240604Z 33016KT 19/12 A2996 RMK A01 T01930116  RH  061%=      5-min Rain = 0
KTAS 240605Z 33014G19KT 19/12 A2996 RMK A01 T01930115  RH  060%=      5-min Rain = 0
KTAS 240606Z 32012KT 19/12 A2996 RMK A01 T01930117  RH  061%=      5-min Rain = 0
KTAS 240607Z 33015KT 19/12 A2996 RMK A01 T01930119  RH  062%=      5-min Rain = 0
KTAS 240608Z 33018G23KT 19/12 A2996 RMK A01 T01920118  RH  062%=      5-min Rain = 0
KTAS 240609Z 34018KT 19/12 A2996 RMK A01 T01910118  RH  063%=      5-min Rain = 0
KTAS 240610Z 34017KT 19/12 A2996 RMK A01 T01900118  RH  063%=      5-min Rain = 0
KTAS 240611Z 34013G18KT 19/12 A2995 RMK A01 T01890118  RH  063%=      5-min Rain = 0
KTAS 240612Z 35014KT 19/12 A2995 RMK A01 T01890119  RH  064%=      5-min Rain = 0
KTAS 240613Z 36015KT 19/12 A2995 RMK A01 T01880120  RH  065%=      5-min Rain = 0
KTAS 240614Z 35014KT 19/12 A2995 RMK A01 T01880122  RH  065%=      5-min Rain = 0
KTAS 240615Z 36015KT 19/12 A2995 RMK A01 T01870121  RH  065%=      5-min Rain = 0
KTAS 240616Z 35014KT 19/12 A2995 RMK A01 T01870121  RH  065%=      5-min Rain = 0
KTAS 240617Z 35013KT 19/12 A2995 RMK A01 T01870122  RH  066%=      5-min Rain = 0
KTAS 240618Z 35013KT 19/12 A2995 RMK A01 T01870122  RH  066%=      5-min Rain = 0
KTAS 240619Z 35010KT 19/12 A2995 RMK A01 T01870122  RH  066%=      5-min Rain = 0
KTAS 240620Z 35013KT 19/12 A2995 RMK A01 T01870123  RH  066%=      5-min Rain = 0
KTAS 240621Z 35014KT 19/12 A2995 RMK A01 T01870123  RH  066%=      5-min Rain = 0
KTAS 240622Z 34013KT 19/12 A2995 RMK A01 T01870124  RH  066%=      5-min Rain = 0
KTAS 240623Z 35012KT 19/12 A2995 RMK A01 T01870123  RH  066%=      5-min Rain = 0
KTAS 240624Z 36013KT 19/12 A2996 RMK A01 T01870123  RH  067%=      5-min Rain = 0
KTAS 240625Z 00013KT 19/12 A2996 RMK A01 T01870124  RH  067%=      5-min Rain = 0
KTAS 240626Z 01011KT 19/12 A2995 RMK A01 T01860124  RH  067%=      5-min Rain = 0
KTAS 240627Z 00012KT 19/12 A2995 RMK A01 T01860124  RH  067%=      5-min Rain = 0
KTAS 240628Z 01010KT 19/13 A2995 RMK A01 T01850125  RH  068%=      5-min Rain = 0
KTAS 240629Z 01012G17KT 19/13 A2996 RMK A01 T01850125  RH  068%=      5-min Rain = 0
KTAS 240630Z 02011KT 19/13 A2996 RMK A01 T01850126  RH  068%=      5-min Rain = 0
KTAS 240631Z 01011KT 19/13 A2995 RMK A01 T01850126  RH  069%=      5-min Rain = 0
KTAS 240632Z 01012KT 18/13 A2995 RMK A01 T01840127  RH  069%=      5-min Rain = 0
KTAS 240633Z 01014KT 18/13 A2995 RMK A01 T01840128  RH  070%=      5-min Rain = 0
KTAS 240634Z 01012KT 18/13 A2995 RMK A01 T01830128  RH  070%=      5-min Rain = 0
KTAS 240635Z 01012KT 18/13 A2996 RMK A01 T01830128  RH  070%=      5-min Rain = 0
KTAS 240636Z 01009KT 18/13 A2996 RMK A01 T01830129  RH  071%=      5-min Rain = 0
KTAS 240637Z 36010KT 18/13 A2996 RMK A01 T01830130  RH  071%=      5-min Rain = 0
KTAS 240638Z 36015KT 18/13 A2996 RMK A01 T01830131  RH  072%=      5-min Rain = 0
KTAS 240639Z 36015KT 18/13 A2995 RMK A01 T01820132  RH  072%=      5-min Rain = 0
KTAS 240640Z 36015KT 18/13 A2995 RMK A01 T01810133  RH  073%=      5-min Rain = 0
KTAS 240641Z 00017KT 18/13 A2995 RMK A01 T01800134  RH  074%=      5-min Rain = 0
KTAS 240642Z 01017KT 18/14 A2995 RMK A01 T01790135  RH  075%=      5-min Rain = 0
KTAS 240643Z 01016KT 18/14 A2995 RMK A01 T01780136  RH  076%=      5-min Rain = 0
KTAS 240644Z 01013KT 18/14 A2995 RMK A01 T01770136  RH  077%=      5-min Rain = 0
KTAS 240645Z 01012KT 18/14 A2995 RMK A01 T01760137  RH  078%=      5-min Rain = 0
KTAS 240646Z 01014KT 18/14 A2994 RMK A01 T01750138  RH  079%=      5-min Rain = 0
KTAS 240647Z 01014KT 17/14 A2995 RMK A01 T01740138  RH  079%=      5-min Rain = 0
KTAS 240648Z 01010KT 17/14 A2995 RMK A01 T01730138  RH  080%=      5-min Rain = 0
KTAS 240649Z 01010KT 17/14 A2995 RMK A01 T01730139  RH  080%=      5-min Rain = 0
KTAS 240650Z 01012KT 17/14 A2995 RMK A01 T01720139  RH  081%=      5-min Rain = 0
KTAS 240651Z 02011KT 17/14 A2995 RMK A01 T01720140  RH  081%=      5-min Rain = 0
KTAS 240652Z 02013KT 17/14 A2994 RMK A01 T01720140  RH  082%=      5-min Rain = 0
KTAS 240653Z 02011KT 17/14 A2994 RMK A01 T01710141  RH  082%=      5-min Rain = 0
KTAS 240654Z 02012KT 17/14 A2994 RMK A01 T01710141  RH  083%=      5-min Rain = 0
KTAS 240655Z 02012KT 17/14 A2994 RMK A01 T01700142  RH  083%=      5-min Rain = 0
KTAS 240656Z 02012KT 17/14 A2994 RMK A01 T01700142  RH  084%=      5-min Rain = 0
KTAS 240657Z 01011KT 17/14 A2994 RMK A01 T01700143  RH  084%=      5-min Rain = 0
KTAS 240658Z 01008KT 17/14 A2994 RMK A01 T01700144  RH  085%=      5-min Rain = 0
KTAS 240659Z 02009KT 17/14 A2995 RMK A01 T01690144  RH  085%=      5-min Rain = 0
KTAS 240700Z 01010KT 17/14 A2995 RMK A01 T01690144  RH  085%=      5-min Rain = 0
KTAS 240701Z 00009KT 17/15 A2995 RMK A01 T01680145  RH  086%=      5-min Rain = 0
KTAS 240702Z 00009KT 17/15 A2995 RMK A01 T01680145  RH  086%=      5-min Rain = 0
KTAS 240703Z 00009KT 17/15 A2995 RMK A01 T01680146  RH  087%=      5-min Rain = 0
KTAS 240704Z 01010KT 17/15 A2995 RMK A01 T01670146  RH  088%=      5-min Rain = 0
KTAS 240705Z 01007KT 17/15 A2995 RMK A01 T01660146  RH  088%=      5-min Rain = 0
KTAS 240706Z 02009KT 17/15 A2995 RMK A01 T01660147  RH  089%=      5-min Rain = 0
KTAS 240707Z 03010KT 17/15 A2995 RMK A01 T01660147  RH  089%=      5-min Rain = 0
KTAS 240708Z 03012KT 17/15 A2995 RMK A01 T01660148  RH  089%=      5-min Rain = 0
KTAS 240709Z 02012KT 17/15 A2994 RMK A01 T01660147  RH  089%=      5-min Rain = 0
KTAS 240710Z 02010KT 17/15 A2995 RMK A01 T01660148  RH  089%=      5-min Rain = 0
KTAS 240711Z 01007KT 17/15 A2995 RMK A01 T01660149  RH  090%=      5-min Rain = 0
KTAS 240712Z 34007KT 17/15 A2996 RMK A01 T01660149  RH  090%=      5-min Rain = 0
KTAS 240713Z 33008KT 17/15 A2996 RMK A01 T01650149  RH  090%=      5-min Rain = 0.01
KTAS 240714Z 34009KT 17/15 A2996 RMK A01 T01650150  RH  091%=      5-min Rain = 0
KTAS 240715Z 35009KT 17/15 A2996 RMK A01 T01650151  RH  091%=      5-min Rain = 0
KTAS 240716Z 34009KT 17/15 A2996 RMK A01 T01650151  RH  092%=      5-min Rain = 0.01
KTAS 240717Z 34010KT 17/15 A2996 RMK A01 T01650152  RH  092%=      5-min Rain = 0
KTAS 240718Z 34009KT 17/15 A2996 RMK A01 T01650152  RH  092%=      5-min Rain = 0
KTAS 240719Z 35008KT 17/15 A2996 RMK A01 T01650153  RH  092%=      5-min Rain = 0
KTAS 240720Z 35009KT 17/15 A2997 RMK A01 T01650153  RH  093%=      5-min Rain = 0
KTAS 240721Z 33007KT 16/15 A2997 RMK A01 T01640153  RH  093%=      5-min Rain = 0.01
KTAS 240722Z 33006KT 16/15 A2997 RMK A01 T01640153  RH  093%=      5-min Rain = 0
KTAS 240723Z 34006KT 17/15 A2997 RMK A01 T01650153  RH  093%=      5-min Rain = 0.01
KTAS 240724Z 36004KT 16/15 A2997 RMK A01 T01640153  RH  093%=      5-min Rain = 0
KTAS 240725Z 01005KT 16/15 A2997 RMK A01 T01640153  RH  093%=      5-min Rain = 0
KTAS 240726Z 02006KT 16/15 A2997 RMK A01 T01640153  RH  093%=      5-min Rain = 0
KTAS 240727Z 01008KT 16/15 A2997 RMK A01 T01640153  RH  093%=      5-min Rain = 0.01
KTAS 240728Z 02008KT 16/15 A2997 RMK A01 T01640153  RH  093%=      5-min Rain = 0
KTAS 240729Z 01009KT 16/15 A2996 RMK A01 T01640153  RH  093%=      5-min Rain = 0
KTAS 240730Z 36010KT 16/15 A2996 RMK A01 T01640153  RH  093%=      5-min Rain = 0
KTAS 240731Z 36012KT 16/15 A2996 RMK A01 T01640152  RH  093%=      5-min Rain = 0.01
KTAS 240732Z 36010KT 16/15 A2996 RMK A01 T01630152  RH  093%=      5-min Rain = 0
KTAS 240733Z 00010KT 16/15 A2996 RMK A01 T01630152  RH  093%=      5-min Rain = 0
KTAS 240734Z 00011KT 16/15 A2996 RMK A01 T01630152  RH  093%=      5-min Rain = 0
KTAS 240735Z 35009KT 16/15 A2996 RMK A01 T01630151  RH  093%=      5-min Rain = 0
KTAS 240736Z 35010KT 16/15 A2996 RMK A01 T01620151  RH  093%=      5-min Rain = 0
KTAS 240737Z 35009KT 16/15 A2996 RMK A01 T01620151  RH  093%=      5-min Rain = 0
KTAS 240738Z 34009KT 16/15 A2996 RMK A01 T01620152  RH  093%=      5-min Rain = 0
KTAS 240739Z 34010KT 16/15 A2996 RMK A01 T01620151  RH  093%=      5-min Rain = 0
KTAS 240740Z 35009KT 16/15 A2996 RMK A01 T01630152  RH  093%=      5-min Rain = 0
KTAS 240741Z 36010KT 16/15 A2996 RMK A01 T01620152  RH  093%=      5-min Rain = 0.01
KTAS 240742Z 00009KT 16/15 A2996 RMK A01 T01620152  RH  093%=      5-min Rain = 0
KTAS 240743Z 00010KT 16/15 A2996 RMK A01 T01630152  RH  094%=      5-min Rain = 0
KTAS 240744Z 00010KT 16/15 A2996 RMK A01 T01620152  RH  094%=      5-min Rain = 0
KTAS 240745Z 00010KT 16/15 A2996 RMK A01 T01620152  RH  094%=      5-min Rain = 0
KTAS 240746Z 00009KT 16/15 A2996 RMK A01 T01620153  RH  094%=      5-min Rain = 0
KTAS 240747Z 00008KT 16/15 A2996 RMK A01 T01620153  RH  094%=      5-min Rain = 0
KTAS 240748Z 36011KT 16/15 A2996 RMK A01 T01620153  RH  094%=      5-min Rain = 0.01
KTAS 240749Z 00009KT 16/15 A2996 RMK A01 T01620152  RH  094%=      5-min Rain = 0
KTAS 240750Z 00009KT 16/15 A2996 RMK A01 T01620152  RH  094%=      5-min Rain = 0
KTAS 240751Z 01009KT 16/15 A2995 RMK A01 T01620152  RH  094%=      5-min Rain = 0
KTAS 240752Z 01009KT 16/15 A2995 RMK A01 T01620152  RH  094%=      5-min Rain = 0
KTAS 240753Z 01009KT 16/15 A2995 RMK A01 T01610152  RH  094%=      5-min Rain = 0
KTAS 240754Z 01010KT 16/15 A2995 RMK A01 T01610151  RH  094%=      5-min Rain = 0
KTAS 240755Z 02009KT 16/15 A2995 RMK A01 T01610151  RH  094%=      5-min Rain = 0
KTAS 240756Z 02011KT 16/15 A2995 RMK A01 T01610151  RH  094%=      5-min Rain = 0
KTAS 240757Z 01010KT 16/15 A2995 RMK A01 T01610150  RH  094%=      5-min Rain = 0
KTAS 240758Z 01008KT 16/15 A2995 RMK A01 T01600150  RH  094%=      5-min Rain = 0.01
KTAS 240759Z 01007KT 16/15 A2995 RMK A01 T01610150  RH  094%=      5-min Rain = 0
KTAS 240800Z 01007KT 16/15 A2995 RMK A01 T01600151  RH  094%=      5-min Rain = 0
KTAS 240801Z 01008KT 16/15 A2995 RMK A01 T01600151  RH  094%=      5-min Rain = 0
KTAS 240802Z 01010KT 16/15 A2995 RMK A01 T01610151  RH  094%=      5-min Rain = 0
KTAS 240803Z 02009KT 16/15 A2995 RMK A01 T01600151  RH  094%=      5-min Rain = 0
KTAS 240804Z 02009KT 16/15 A2995 RMK A01 T01610151  RH  094%=      5-min Rain = 0
KTAS 240805Z 02008KT 16/15 A2995 RMK A01 T01600151  RH  094%=      5-min Rain = 0
KTAS 240806Z 03008KT 16/15 A2995 RMK A01 T01610151  RH  094%=      5-min Rain = 0
KTAS 240807Z 03006KT 16/15 A2995 RMK A01 T01610152  RH  094%=      5-min Rain = 0
KTAS 240808Z 03006KT 16/15 A2995 RMK A01 T01610152  RH  094%=      5-min Rain = 0
KTAS 240809Z 03007KT 16/15 A2995 RMK A01 T01610152  RH  094%=      5-min Rain = 0
KTAS 240810Z 03005KT 16/15 A2995 RMK A01 T01610152  RH  094%=      5-min Rain = 0
KTAS 240811Z 03007KT 16/15 A2995 RMK A01 T01610152  RH  094%=      5-min Rain = 0
KTAS 240812Z 03007KT 16/15 A2995 RMK A01 T01610152  RH  094%=      5-min Rain = 0
KTAS 240813Z 03007KT 16/15 A2995 RMK A01 T01610152  RH  094%=      5-min Rain = 0
KTAS 240814Z 03008KT 16/15 A2995 RMK A01 T01610152  RH  094%=      5-min Rain = 0
KTAS 240815Z 03007KT 16/15 A2995 RMK A01 T01610152  RH  094%=      5-min Rain = 0
KTAS 240816Z 03006KT 16/15 A2995 RMK A01 T01610152  RH  094%=      5-min Rain = 0
KTAS 240817Z 04008KT 16/15 A2995 RMK A01 T01610152  RH  094%=      5-min Rain = 0.01
KTAS 240818Z 04007KT 16/15 A2995 RMK A01 T01610152  RH  094%=      5-min Rain = 0
KTAS 240819Z 04007KT 16/15 A2995 RMK A01 T01610152  RH  094%=      5-min Rain = 0
KTAS 240820Z 04006KT 16/15 A2995 RMK A01 T01610152  RH  094%=      5-min Rain = 0
KTAS 240821Z 05006KT 16/15 A2995 RMK A01 T01610151  RH  094%=      5-min Rain = 0
KTAS 240822Z 05007KT 16/15 A2995 RMK A01 T01610152  RH  094%=      5-min Rain = 0
KTAS 240823Z 05008KT 16/15 A2995 RMK A01 T01610152  RH  094%=      5-min Rain = 0
KTAS 240824Z 04008KT 16/15 A2995 RMK A01 T01610152  RH  094%=      5-min Rain = 0
KTAS 240825Z 05007KT 16/15 A2995 RMK A01 T01610152  RH  094%=      5-min Rain = 0
KTAS 240826Z 05006KT 16/15 A2995 RMK A01 T01610152  RH  094%=      5-min Rain = 0
KTAS 240827Z 05006KT 16/15 A2995 RMK A01 T01610152  RH  094%=      5-min Rain = 0.01
KTAS 240828Z 05006KT 16/15 A2995 RMK A01 T01610151  RH  094%=      5-min Rain = 0
KTAS 240829Z 06007KT 16/15 A2995 RMK A01 T01610152  RH  094%=      5-min Rain = 0
KTAS 240830Z 06007KT 16/15 A2995 RMK A01 T01610151  RH  094%=      5-min Rain = 0
KTAS 240831Z 06006KT 16/15 A2995 RMK A01 T01610152  RH  094%=      5-min Rain = 0
KTAS 240832Z 06007KT 16/15 A2995 RMK A01 T01610152  RH  094%=      5-min Rain = 0
KTAS 240833Z 06008KT 16/15 A2995 RMK A01 T01610151  RH  094%=      5-min Rain = 0
KTAS 240834Z 06006KT 16/15 A2995 RMK A01 T01610151  RH  094%=      5-min Rain = 0
KTAS 240835Z 06006KT 16/15 A2995 RMK A01 T01600151  RH  094%=      5-min Rain = 0
KTAS 240836Z 06006KT 16/15 A2995 RMK A01 T01600151  RH  094%=      5-min Rain = 0
KTAS 240837Z 06007KT 16/15 A2995 RMK A01 T01610151  RH  094%=      5-min Rain = 0
KTAS 240838Z 06007KT 16/15 A2995 RMK A01 T01600151  RH  094%=      5-min Rain = 0
KTAS 240839Z 06008KT 16/15 A2994 RMK A01 T01610151  RH  094%=      5-min Rain = 0
KTAS 240840Z 06007KT 16/15 A2994 RMK A01 T01610151  RH  094%=      5-min Rain = 0
KTAS 240841Z 06008KT 16/15 A2994 RMK A01 T01600150  RH  094%=      5-min Rain = 0
KTAS 240842Z 06007KT 16/15 A2994 RMK A01 T01600150  RH  094%=      5-min Rain = 0
KTAS 240843Z 06006KT 16/15 A2994 RMK A01 T01600150  RH  094%=      5-min Rain = 0
KTAS 240844Z 05006KT 16/15 A2994 RMK A01 T01600150  RH  094%=      5-min Rain = 0
KTAS 240845Z 05006KT 16/15 A2994 RMK A01 T01600150  RH  094%=      5-min Rain = 0
KTAS 240846Z 05006KT 16/15 A2994 RMK A01 T01600150  RH  094%=      5-min Rain = 0
KTAS 240847Z 04005KT 16/15 A2994 RMK A01 T01600150  RH  094%=      5-min Rain = 0
KTAS 240848Z 04005KT 16/15 A2994 RMK A01 T01600150  RH  094%=      5-min Rain = 0
KTAS 240849Z 05005KT 16/15 A2994 RMK A01 T01600150  RH  094%=      5-min Rain = 0
KTAS 240850Z 04004KT 16/15 A2994 RMK A01 T01600150  RH  094%=      5-min Rain = 0
KTAS 240851Z 04005KT 16/15 A2994 RMK A01 T01600150  RH  094%=      5-min Rain = 0
KTAS 240852Z 04005KT 16/15 A2994 RMK A01 T01600151  RH  094%=      5-min Rain = 0
KTAS 240853Z 04004KT 16/15 A2994 RMK A01 T01600151  RH  094%=      5-min Rain = 0
KTAS 240854Z 05004KT 16/15 A2994 RMK A01 T01600151  RH  094%=      5-min Rain = 0
KTAS 240855Z 05005KT 16/15 A2994 RMK A01 T01610151  RH  094%=      5-min Rain = 0
KTAS 240856Z 05005KT 16/15 A2994 RMK A01 T01610152  RH  094%=      5-min Rain = 0
KTAS 240857Z 06004KT 16/15 A2994 RMK A01 T01610152  RH  094%=      5-min Rain = 0
KTAS 240858Z 06005KT 16/15 A2994 RMK A01 T01610152  RH  094%=      5-min Rain = 0
KTAS 240859Z 06006KT 16/15 A2994 RMK A01 T01600152  RH  094%=      5-min Rain = 0
KTAS 240900Z 06007KT 16/15 A2994 RMK A01 T01610152  RH  095%=      5-min Rain = 0
KTAS 240901Z 06007KT 16/15 A2994 RMK A01 T01610152  RH  095%=      5-min Rain = 0
KTAS 240902Z 06007KT 16/15 A2994 RMK A01 T01610152  RH  094%=      5-min Rain = 0
KTAS 240903Z 06007KT 16/15 A2994 RMK A01 T01610152  RH  094%=      5-min Rain = 0
KTAS 240904Z 06007KT 16/15 A2994 RMK A01 T01610152  RH  094%=      5-min Rain = 0
KTAS 240905Z 07007KT 16/15 A2994 RMK A01 T01610152  RH  094%=      5-min Rain = 0
KTAS 240906Z 07008KT 16/15 A2994 RMK A01 T01610152  RH  094%=      5-min Rain = 0
KTAS 240907Z 07008KT 16/15 A2994 RMK A01 T01610152  RH  094%=      5-min Rain = 0
KTAS 240908Z 07009KT 16/15 A2994 RMK A01 T01610152  RH  094%=      5-min Rain = 0
KTAS 240909Z 07007KT 16/15 A2994 RMK A01 T01600152  RH  095%=      5-min Rain = 0
KTAS 240910Z 07007KT 16/15 A2994 RMK A01 T01610152  RH  095%=      5-min Rain = 0
KTAS 240911Z 07006KT 16/15 A2994 RMK A01 T01600152  RH  095%=      5-min Rain = 0
KTAS 240912Z 07006KT 16/15 A2994 RMK A01 T01600151  RH  095%=      5-min Rain = 0
KTAS 240913Z 08005KT 16/15 A2994 RMK A01 T01600151  RH  095%=      5-min Rain = 0
KTAS 240914Z 07006KT 16/15 A2994 RMK A01 T01600151  RH  095%=      5-min Rain = 0
KTAS 240915Z 07007KT 16/15 A2994 RMK A01 T01600151  RH  095%=      5-min Rain = 0
KTAS 240916Z 06007KT 16/15 A2994 RMK A01 T01600151  RH  094%=      5-min Rain = 0
KTAS 240917Z 06007KT 16/15 A2994 RMK A01 T01600151  RH  094%=      5-min Rain = 0
KTAS 240918Z 06007KT 16/15 A2993 RMK A01 T01600151  RH  094%=      5-min Rain = 0
KTAS 240919Z 06007KT 16/15 A2993 RMK A01 T01600151  RH  094%=      5-min Rain = 0
KTAS 240920Z 06008KT 16/15 A2993 RMK A01 T01600151  RH  094%=      5-min Rain = 0
KTAS 240921Z 06007KT 16/15 A2994 RMK A01 T01600150  RH  094%=      5-min Rain = 0
KTAS 240922Z 06006KT 16/15 A2994 RMK A01 T01600150  RH  094%=      5-min Rain = 0
KTAS 240923Z 07006KT 16/15 A2994 RMK A01 T01600150  RH  094%=      5-min Rain = 0
KTAS 240924Z 08007KT 16/15 A2994 RMK A01 T01590150  RH  094%=      5-min Rain = 0
KTAS 240925Z 08007KT 16/15 A2994 RMK A01 T01590150  RH  094%=      5-min Rain = 0
KTAS 240926Z 09008KT 16/15 A2994 RMK A01 T01590150  RH  094%=      5-min Rain = 0
KTAS 240927Z 09007KT 16/15 A2994 RMK A01 T01590150  RH  094%=      5-min Rain = 0
KTAS 240928Z 08007KT 16/15 A2994 RMK A01 T01590150  RH  094%=      5-min Rain = 0
KTAS 240929Z 08008KT 16/15 A2994 RMK A01 T01590150  RH  094%=      5-min Rain = 0
KTAS 240930Z 08009KT 16/15 A2994 RMK A01 T01590150  RH  094%=      5-min Rain = 0
KTAS 240931Z 08009KT 16/15 A2994 RMK A01 T01590150  RH  094%=      5-min Rain = 0
KTAS 240932Z 07008KT 16/15 A2994 RMK A01 T01590150  RH  094%=      5-min Rain = 0
KTAS 240933Z 06008KT 16/15 A2994 RMK A01 T01600151  RH  094%=      5-min Rain = 0
KTAS 240934Z 06007KT 16/15 A2994 RMK A01 T01600151  RH  094%=      5-min Rain = 0
KTAS 240935Z 06007KT 16/15 A2994 RMK A01 T01600151  RH  094%=      5-min Rain = 0
KTAS 240936Z 06006KT 16/15 A2994 RMK A01 T01600151  RH  094%=      5-min Rain = 0
KTAS 240937Z 06005KT 16/15 A2994 RMK A01 T01610152  RH  094%=      5-min Rain = 0
KTAS 240938Z 06005KT 16/15 A2995 RMK A01 T01610152  RH  094%=      5-min Rain = 0
KTAS 240939Z 06005KT 16/15 A2994 RMK A01 T01610152  RH  094%=      5-min Rain = 0
KTAS 240940Z 06003KT 16/15 A2995 RMK A01 T01610152  RH  094%=      5-min Rain = 0
KTAS 240941Z 06003KT 16/15 A2995 RMK A01 T01610152  RH  095%=      5-min Rain = 0
KTAS 240942Z 05004KT 16/15 A2995 RMK A01 T01610153  RH  095%=      5-min Rain = 0
KTAS 240943Z 06005KT 16/15 A2995 RMK A01 T01620153  RH  095%=      5-min Rain = 0
KTAS 240944Z 05006KT 16/15 A2995 RMK A01 T01620153  RH  095%=      5-min Rain = 0
KTAS 240945Z 05005KT 16/15 A2995 RMK A01 T01620153  RH  095%=      5-min Rain = 0
KTAS 240946Z 05005KT 16/15 A2995 RMK A01 T01620154  RH  095%=      5-min Rain = 0
KTAS 240947Z 05006KT 16/15 A2995 RMK A01 T01630154  RH  095%=      5-min Rain = 0
KTAS 240948Z 04006KT 16/15 A2995 RMK A01 T01630154  RH  094%=      5-min Rain = 0
KTAS 240949Z 04005KT 16/15 A2995 RMK A01 T01630154  RH  094%=      5-min Rain = 0
KTAS 240950Z 04005KT 16/15 A2995 RMK A01 T01630154  RH  094%=      5-min Rain = 0
KTAS 240951Z 04005KT 16/15 A2995 RMK A01 T01640154  RH  094%=      5-min Rain = 0
KTAS 240952Z 05005KT 16/15 A2995 RMK A01 T01640154  RH  094%=      5-min Rain = 0
KTAS 240953Z 05005KT 16/15 A2995 RMK A01 T01640154  RH  094%=      5-min Rain = 0
KTAS 240954Z 05005KT 16/15 A2995 RMK A01 T01640154  RH  094%=      5-min Rain = 0
KTAS 240955Z 05005KT 17/16 A2995 RMK A01 T01650155  RH  094%=      5-min Rain = 0
KTAS 240956Z 05005KT 16/15 A2995 RMK A01 T01640154  RH  094%=      5-min Rain = 0
KTAS 240957Z 05004KT 17/15 A2995 RMK A01 T01650154  RH  094%=      5-min Rain = 0
KTAS 240958Z 05005KT 17/16 A2995 RMK A01 T01650155  RH  094%=      5-min Rain = 0
KTAS 240959Z 05005KT 17/15 A2995 RMK A01 T01650154  RH  093%=      5-min Rain = 0
KTAS 241000Z 05005KT 17/15 A2995 RMK A01 T01650154  RH  093%=      5-min Rain = 0
KTAS 241001Z 05006KT 17/15 A2995 RMK A01 T01660154  RH  093%=      5-min Rain = 0
KTAS 241002Z 05004KT 17/15 A2995 RMK A01 T01660154  RH  093%=      5-min Rain = 0
KTAS 241003Z 05005KT 17/15 A2995 RMK A01 T01660154  RH  093%=      5-min Rain = 0
KTAS 241004Z 06004KT 17/15 A2995 RMK A01 T01660154  RH  093%=      5-min Rain = 0
KTAS 241005Z 06004KT 17/15 A2995 RMK A01 T01660154  RH  093%=      5-min Rain = 0
KTAS 241006Z 06004KT 17/15 A2995 RMK A01 T01660154  RH  093%=      5-min Rain = 0
KTAS 241007Z 05004KT 17/15 A2995 RMK A01 T01660154  RH  093%=      5-min Rain = 0
KTAS 241008Z 05005KT 17/15 A2995 RMK A01 T01660154  RH  093%=      5-min Rain = 0
KTAS 241009Z 05004KT 17/15 A2995 RMK A01 T01660154  RH  093%=      5-min Rain = 0
KTAS 241010Z 05005KT 17/15 A2995 RMK A01 T01660154  RH  093%=      5-min Rain = 0
KTAS 241011Z 05005KT 17/16 A2995 RMK A01 T01660155  RH  093%=      5-min Rain = 0
KTAS 241012Z 05006KT 17/15 A2995 RMK A01 T01660154  RH  093%=      5-min Rain = 0
KTAS 241013Z 04005KT 17/15 A2995 RMK A01 T01660154  RH  093%=      5-min Rain = 0
KTAS 241014Z 04006KT 17/15 A2995 RMK A01 T01660154  RH  093%=      5-min Rain = 0
KTAS 241015Z 04006KT 17/15 A2995 RMK A01 T01660154  RH  093%=      5-min Rain = 0
KTAS 241016Z 04007KT 17/15 A2995 RMK A01 T01660154  RH  093%=      5-min Rain = 0
KTAS 241017Z 05006KT 17/15 A2995 RMK A01 T01660154  RH  093%=      5-min Rain = 0
KTAS 241018Z 05006KT 17/15 A2995 RMK A01 T01660154  RH  093%=      5-min Rain = 0
KTAS 241019Z 05006KT 17/15 A2995 RMK A01 T01660154  RH  093%=      5-min Rain = 0
KTAS 241020Z 05007KT 17/15 A2995 RMK A01 T01660154  RH  093%=      5-min Rain = 0
KTAS 241021Z 05007KT 17/15 A2995 RMK A01 T01660154  RH  093%=      5-min Rain = 0
KTAS 241022Z 05006KT 17/15 A2995 RMK A01 T01660153  RH  092%=      5-min Rain = 0
KTAS 241023Z 05006KT 17/15 A2995 RMK A01 T01660153  RH  092%=      5-min Rain = 0
KTAS 241024Z 05006KT 17/15 A2995 RMK A01 T01660154  RH  092%=      5-min Rain = 0
KTAS 241025Z 05006KT 17/15 A2995 RMK A01 T01660154  RH  092%=      5-min Rain = 0
KTAS 241026Z 05006KT 17/15 A2995 RMK A01 T01660154  RH  092%=      5-min Rain = 0
KTAS 241027Z 05005KT 17/16 A2995 RMK A01 T01660155  RH  093%=      5-min Rain = 0
KTAS 241028Z 05005KT 17/16 A2995 RMK A01 T01660155  RH  093%=      5-min Rain = 0
KTAS 241029Z 05005KT 17/16 A2995 RMK A01 T01660155  RH  093%=      5-min Rain = 0
KTAS 241030Z 07004KT 17/16 A2995 RMK A01 T01660155  RH  093%=      5-min Rain = 0
KTAS 241031Z 07005KT 17/16 A2995 RMK A01 T01660155  RH  093%=      5-min Rain = 0
KTAS 241032Z 06005KT 17/16 A2995 RMK A01 T01660155  RH  093%=      5-min Rain = 0
KTAS 241033Z 06005KT 17/16 A2995 RMK A01 T01660155  RH  093%=      5-min Rain = 0
KTAS 241034Z 05004KT 17/16 A2995 RMK A01 T01660155  RH  093%=      5-min Rain = 0
KTAS 241035Z 05005KT 17/16 A2995 RMK A01 T01660155  RH  093%=      5-min Rain = 0
KTAS 241036Z 04006KT 17/16 A2995 RMK A01 T01660155  RH  093%=      5-min Rain = 0
KTAS 241037Z 04005KT 17/16 A2995 RMK A01 T01660155  RH  093%=      5-min Rain = 0
KTAS 241038Z 04005KT 17/16 A2995 RMK A01 T01660155  RH  093%=      5-min Rain = 0
KTAS 241039Z 03004KT 17/16 A2995 RMK A01 T01660155  RH  093%=      5-min Rain = 0
KTAS 241040Z 03004KT 17/16 A2995 RMK A01 T01670155  RH  093%=      5-min Rain = 0
KTAS 241041Z 02005KT 17/16 A2995 RMK A01 T01670155  RH  093%=      5-min Rain = 0
KTAS 241042Z 02004KT 17/16 A2995 RMK A01 T01670155  RH  093%=      5-min Rain = 0
KTAS 241043Z 01004KT 17/16 A2995 RMK A01 T01670156  RH  093%=      5-min Rain = 0
KTAS 241044Z 00004KT 17/16 A2995 RMK A01 T01680156  RH  093%=      5-min Rain = 0
KTAS 241045Z 00004KT 17/16 A2995 RMK A01 T01680157  RH  093%=      5-min Rain = 0
KTAS 241046Z 01004KT 17/16 A2995 RMK A01 T01680157  RH  093%=      5-min Rain = 0
KTAS 241047Z 01005KT 17/16 A2995 RMK A01 T01680157  RH  093%=      5-min Rain = 0
KTAS 241048Z 01006KT 17/16 A2995 RMK A01 T01680157  RH  093%=      5-min Rain = 0
KTAS 241049Z 01006KT 17/16 A2995 RMK A01 T01680157  RH  094%=      5-min Rain = 0
KTAS 241050Z 02004KT 17/16 A2995 RMK A01 T01680157  RH  094%=      5-min Rain = 0
KTAS 241051Z 02002KT 17/16 A2995 RMK A01 T01680158  RH  094%=      5-min Rain = 0
KTAS 241052Z 00001KT 17/16 A2995 RMK A01 T01680158  RH  094%=      5-min Rain = 0
KTAS 241053Z 33000KT 17/16 A2995 RMK A01 T01680159  RH  094%=      5-min Rain = 0
KTAS 241054Z 33000KT 17/16 A2995 RMK A01 T01680159  RH  094%=      5-min Rain = 0
KTAS 241055Z 00000KT 17/16 A2995 RMK A01 T01680158  RH  094%=      5-min Rain = 0
KTAS 241056Z 02000KT 17/16 A2995 RMK A01 T01680158  RH  094%=      5-min Rain = 0
KTAS 241057Z 02001KT 17/16 A2995 RMK A01 T01680158  RH  094%=      5-min Rain = 0
KTAS 241058Z 03002KT 17/16 A2995 RMK A01 T01680158  RH  094%=      5-min Rain = 0
KTAS 241059Z 03004KT 17/16 A2995 RMK A01 T01680159  RH  094%=      5-min Rain = 0
KTAS 241100Z 03004KT 17/16 A2995 RMK A01 T01690159  RH  094%=      5-min Rain = 0
KTAS 241101Z 02005KT 17/16 A2995 RMK A01 T01690159  RH  094%=      5-min Rain = 0
KTAS 241102Z 02005KT 17/16 A2995 RMK A01 T01690159  RH  094%=      5-min Rain = 0
KTAS 241103Z 03004KT 17/16 A2995 RMK A01 T01690159  RH  094%=      5-min Rain = 0
KTAS 241104Z 03003KT 17/16 A2995 RMK A01 T01700159  RH  094%=      5-min Rain = 0
KTAS 241105Z 03003KT 17/16 A2995 RMK A01 T01690159  RH  093%=      5-min Rain = 0
KTAS 241106Z 03002KT 17/16 A2995 RMK A01 T01690158  RH  093%=      5-min Rain = 0
KTAS 241107Z 02001KT 17/16 A2995 RMK A01 T01690158  RH  093%=      5-min Rain = 0
KTAS 241108Z 02001KT 17/16 A2995 RMK A01 T01700159  RH  093%=      5-min Rain = 0
KTAS 241109Z 00002KT 17/16 A2995 RMK A01 T01700159  RH  093%=      5-min Rain = 0
KTAS 241110Z 01002KT 17/16 A2995 RMK A01 T01700159  RH  093%=      5-min Rain = 0
KTAS 241111Z 00003KT 17/16 A2995 RMK A01 T01700158  RH  093%=      5-min Rain = 0
KTAS 241112Z 00003KT 17/16 A2995 RMK A01 T01700159  RH  093%=      5-min Rain = 0
KTAS 241113Z 35002KT 17/16 A2995 RMK A01 T01700159  RH  093%=      5-min Rain = 0
KTAS 241114Z 35002KT 17/16 A2995 RMK A01 T01700159  RH  093%=      5-min Rain = 0
KTAS 241115Z 35002KT 17/16 A2995 RMK A01 T01700159  RH  093%=      5-min Rain = 0
KTAS 241116Z 01002KT 17/16 A2995 RMK A01 T01700159  RH  093%=      5-min Rain = 0
KTAS 241117Z 03002KT 17/16 A2995 RMK A01 T01700159  RH  093%=      5-min Rain = 0
KTAS 241118Z 04003KT 17/16 A2995 RMK A01 T01700159  RH  093%=      5-min Rain = 0
KTAS 241119Z 04003KT 17/16 A2995 RMK A01 T01700159  RH  093%=      5-min Rain = 0
KTAS 241120Z 04004KT 17/16 A2995 RMK A01 T01710160  RH  093%=      5-min Rain = 0
KTAS 241121Z 04005KT 17/16 A2995 RMK A01 T01710160  RH  093%=      5-min Rain = 0
KTAS 241122Z 04005KT 17/16 A2995 RMK A01 T01710159  RH  093%=      5-min Rain = 0
KTAS 241123Z 05005KT 17/16 A2995 RMK A01 T01710159  RH  093%=      5-min Rain = 0
KTAS 241124Z 05005KT 17/16 A2995 RMK A01 T01710159  RH  093%=      5-min Rain = 0
KTAS 241125Z 06005KT 17/16 A2995 RMK A01 T01710159  RH  092%=      5-min Rain = 0
KTAS 241126Z 06005KT 17/16 A2995 RMK A01 T01710158  RH  092%=      5-min Rain = 0
KTAS 241127Z 06005KT 17/16 A2995 RMK A01 T01710158  RH  092%=      5-min Rain = 0
KTAS 241128Z 06006KT 17/16 A2995 RMK A01 T01710158  RH  092%=      5-min Rain = 0
KTAS 241129Z 06006KT 17/16 A2995 RMK A01 T01710158  RH  092%=      5-min Rain = 0
KTAS 241130Z 06005KT 17/16 A2994 RMK A01 T01710158  RH  092%=      5-min Rain = 0
KTAS 241131Z 05006KT 17/16 A2994 RMK A01 T01710158  RH  092%=      5-min Rain = 0
KTAS 241132Z 06006KT 17/16 A2995 RMK A01 T01710158  RH  092%=      5-min Rain = 0
KTAS 241133Z 06006KT 17/16 A2995 RMK A01 T01710158  RH  092%=      5-min Rain = 0
KTAS 241134Z 06006KT 17/16 A2995 RMK A01 T01720158  RH  092%=      5-min Rain = 0
KTAS 241135Z 06005KT 17/16 A2995 RMK A01 T01720158  RH  092%=      5-min Rain = 0
KTAS 241136Z 06005KT 17/16 A2995 RMK A01 T01720158  RH  091%=      5-min Rain = 0
KTAS 241137Z 05006KT 17/16 A2995 RMK A01 T01720158  RH  091%=      5-min Rain = 0
KTAS 241138Z 05006KT 17/16 A2995 RMK A01 T01720158  RH  091%=      5-min Rain = 0
KTAS 241139Z 05006KT 17/16 A2995 RMK A01 T01720158  RH  091%=      5-min Rain = 0
KTAS 241140Z 05006KT 17/16 A2995 RMK A01 T01720158  RH  091%=      5-min Rain = 0
KTAS 241141Z 06006KT 17/16 A2995 RMK A01 T01730158  RH  091%=      5-min Rain = 0
KTAS 241142Z 06005KT 17/16 A2995 RMK A01 T01730158  RH  091%=      5-min Rain = 0
KTAS 241143Z 06006KT 17/16 A2995 RMK A01 T01730157  RH  091%=      5-min Rain = 0
KTAS 241144Z 06006KT 17/16 A2995 RMK A01 T01730158  RH  091%=      5-min Rain = 0
KTAS 241145Z 06005KT 17/16 A2995 RMK A01 T01730158  RH  091%=      5-min Rain = 0
KTAS 241146Z 07006KT 17/16 A2995 RMK A01 T01730158  RH  091%=      5-min Rain = 0
KTAS 241147Z 07006KT 17/16 A2995 RMK A01 T01730158  RH  091%=      5-min Rain = 0
KTAS 241148Z 07006KT 17/16 A2995 RMK A01 T01730158  RH  091%=      5-min Rain = 0
KTAS 241149Z 06006KT 17/16 A2995 RMK A01 T01730158  RH  091%=      5-min Rain = 0
KTAS 241150Z 06006KT 17/16 A2995 RMK A01 T01730158  RH  091%=      5-min Rain = 0
KTAS 241151Z 07006KT 17/16 A2995 RMK A01 T01730158  RH  091%=      5-min Rain = 0
KTAS 241152Z 07006KT 17/16 A2995 RMK A01 T01730158  RH  091%=      5-min Rain = 0
KTAS 241153Z 07007KT 17/16 A2995 RMK A01 T01730158  RH  091%=      5-min Rain = 0
KTAS 241154Z 07007KT 17/16 A2995 RMK A01 T01730159  RH  091%=      5-min Rain = 0
KTAS 241155Z 06006KT 17/16 A2995 RMK A01 T01730159  RH  091%=      5-min Rain = 0
KTAS 241156Z 07007KT 17/16 A2995 RMK A01 T01730159  RH  091%=      5-min Rain = 0
KTAS 241157Z 07006KT 17/16 A2995 RMK A01 T01730158  RH  091%=      5-min Rain = 0
KTAS 241158Z 07007KT 17/16 A2995 RMK A01 T01730158  RH  091%=      5-min Rain = 0
KTAS 241159Z 07008KT 17/16 A2995 RMK A01 T01730158  RH  091%=      5-min Rain = 0
KTAS 241200Z 07007KT 17/16 A2995 RMK A01 T01730158  RH  091%=      5-min Rain = 0
KTAS 241201Z 07008KT 17/16 A2995 RMK A01 T01730158  RH  091%=      5-min Rain = 0
KTAS 241202Z 07008KT 17/16 A2995 RMK A01 T01740159  RH  091%=      5-min Rain = 0
KTAS 241203Z 07007KT 17/16 A2995 RMK A01 T01730158  RH  091%=      5-min Rain = 0
KTAS 241204Z 07008KT 17/16 A2995 RMK A01 T01730158  RH  091%=      5-min Rain = 0
KTAS 241205Z 07007KT 17/16 A2995 RMK A01 T01730158  RH  091%=      5-min Rain = 0
KTAS 241206Z 07007KT 17/16 A2995 RMK A01 T01740158  RH  091%=      5-min Rain = 0
KTAS 241207Z 08007KT 17/16 A2995 RMK A01 T01740158  RH  091%=      5-min Rain = 0
KTAS 241208Z 08007KT 17/16 A2995 RMK A01 T01740158  RH  091%=      5-min Rain = 0
KTAS 241209Z 07007KT 17/16 A2995 RMK A01 T01740159  RH  091%=      5-min Rain = 0
KTAS 241210Z 07008KT 17/16 A2995 RMK A01 T01740158  RH  091%=      5-min Rain = 0
KTAS 241211Z 07006KT 17/16 A2995 RMK A01 T01740159  RH  091%=      5-min Rain = 0
KTAS 241212Z 08005KT 17/16 A2995 RMK A01 T01740159  RH  091%=      5-min Rain = 0
KTAS 241213Z 08005KT 17/16 A2995 RMK A01 T01740160  RH  091%=      5-min Rain = 0
KTAS 241214Z 08006KT 17/16 A2995 RMK A01 T01740160  RH  091%=      5-min Rain = 0
KTAS 241215Z 08006KT 17/16 A2995 RMK A01 T01740160  RH  091%=      5-min Rain = 0
KTAS 241216Z 08006KT 17/16 A2995 RMK A01 T01740160  RH  092%=      5-min Rain = 0
KTAS 241217Z 08006KT 17/16 A2995 RMK A01 T01740160  RH  092%=      5-min Rain = 0
KTAS 241218Z 07007KT 17/16 A2995 RMK A01 T01740160  RH  091%=      5-min Rain = 0
KTAS 241219Z 07006KT 18/16 A2995 RMK A01 T01750160  RH  091%=      5-min Rain = 0
KTAS 241220Z 07007KT 18/16 A2995 RMK A01 T01750160  RH  091%=      5-min Rain = 0
KTAS 241221Z 07006KT 18/16 A2995 RMK A01 T01750160  RH  091%=      5-min Rain = 0
KTAS 241222Z 08006KT 18/16 A2996 RMK A01 T01760161  RH  091%=      5-min Rain = 0
KTAS 241223Z 08006KT 18/16 A2996 RMK A01 T01760161  RH  091%=      5-min Rain = 0
KTAS 241224Z 08005KT 18/16 A2996 RMK A01 T01750161  RH  091%=      5-min Rain = 0
KTAS 241225Z 08006KT 18/16 A2996 RMK A01 T01760161  RH  091%=      5-min Rain = 0
KTAS 241226Z 08006KT 18/16 A2995 RMK A01 T01760161  RH  091%=      5-min Rain = 0
KTAS 241227Z 08006KT 18/16 A2995 RMK A01 T01760161  RH  091%=      5-min Rain = 0
KTAS 241228Z 07005KT 18/16 A2995 RMK A01 T01760161  RH  091%=      5-min Rain = 0
KTAS 241229Z 07006KT 18/16 A2995 RMK A01 T01770162  RH  091%=      5-min Rain = 0
KTAS 241230Z 07009KT 18/16 A2995 RMK A01 T01770162  RH  091%=      5-min Rain = 0
KTAS 241231Z 08007KT 18/16 A2996 RMK A01 T01770162  RH  091%=      5-min Rain = 0
KTAS 241232Z 08007KT 18/16 A2996 RMK A01 T01770163  RH  091%=      5-min Rain = 0
KTAS 241233Z 08006KT 18/16 A2996 RMK A01 T01780163  RH  091%=      5-min Rain = 0
KTAS 241234Z 08006KT 18/16 A2996 RMK A01 T01780163  RH  091%=      5-min Rain = 0
KTAS 241235Z 09006KT 18/16 A2996 RMK A01 T01770163  RH  091%=      5-min Rain = 0
KTAS 241236Z 08006KT 18/16 A2996 RMK A01 T01780163  RH  091%=      5-min Rain = 0
KTAS 241237Z 07006KT 18/16 A2996 RMK A01 T01780163  RH  091%=      5-min Rain = 0
KTAS 241238Z 07007KT 18/16 A2996 RMK A01 T01780163  RH  091%=      5-min Rain = 0
KTAS 241239Z 06006KT 18/16 A2996 RMK A01 T01780163  RH  091%=      5-min Rain = 0
KTAS 241240Z 06007KT 18/16 A2996 RMK A01 T01780162  RH  090%=      5-min Rain = 0
KTAS 241241Z 06007KT 18/16 A2996 RMK A01 T01790163  RH  090%=      5-min Rain = 0
KTAS 241242Z 06007KT 18/16 A2996 RMK A01 T01780162  RH  090%=      5-min Rain = 0
KTAS 241243Z 07008KT 18/16 A2996 RMK A01 T01780162  RH  090%=      5-min Rain = 0
KTAS 241244Z 07007KT 18/16 A2996 RMK A01 T01780162  RH  090%=      5-min Rain = 0
KTAS 241245Z 07006KT 18/16 A2996 RMK A01 T01780162  RH  090%=      5-min Rain = 0
KTAS 241246Z 07007KT 18/16 A2996 RMK A01 T01780163  RH  091%=      5-min Rain = 0
KTAS 241247Z 07008KT 18/16 A2996 RMK A01 T01780163  RH  091%=      5-min Rain = 0
KTAS 241248Z 07007KT 18/16 A2996 RMK A01 T01780164  RH  091%=      5-min Rain = 0
KTAS 241249Z 07007KT 18/16 A2996 RMK A01 T01780164  RH  091%=      5-min Rain = 0
KTAS 241250Z 08006KT 18/17 A2996 RMK A01 T01790165  RH  091%=      5-min Rain = 0
KTAS 241251Z 08006KT 18/17 A2996 RMK A01 T01790165  RH  092%=      5-min Rain = 0
KTAS 241252Z 08007KT 18/17 A2996 RMK A01 T01790165  RH  092%=      5-min Rain = 0
KTAS 241253Z 08008KT 18/17 A2996 RMK A01 T01790165  RH  092%=      5-min Rain = 0
KTAS 241254Z 08007KT 18/17 A2996 RMK A01 T01790165  RH  092%=      5-min Rain = 0
KTAS 241255Z 08008KT 18/17 A2996 RMK A01 T01800166  RH  092%=      5-min Rain = 0
KTAS 241256Z 08007KT 18/17 A2996 RMK A01 T01800165  RH  091%=      5-min Rain = 0
KTAS 241257Z 08007KT 18/17 A2996 RMK A01 T01790165  RH  091%=      5-min Rain = 0
KTAS 241258Z 09008KT 18/17 A2996 RMK A01 T01800166  RH  092%=      5-min Rain = 0
KTAS 241259Z 08008KT 18/17 A2996 RMK A01 T01800165  RH  091%=      5-min Rain = 0
KTAS 241300Z 08007KT 18/17 A2996 RMK A01 T01800165  RH  091%=      5-min Rain = 0
KTAS 241301Z 08007KT 18/17 A2997 RMK A01 T01800166  RH  091%=      5-min Rain = 0
KTAS 241302Z 08005KT 18/17 A2997 RMK A01 T01800166  RH  091%=      5-min Rain = 0
KTAS 241303Z 07004KT 18/17 A2997 RMK A01 T01810167  RH  092%=      5-min Rain = 0
KTAS 241304Z 08006KT 18/17 A2997 RMK A01 T01810168  RH  092%=      5-min Rain = 0
KTAS 241305Z 08005KT 18/17 A2997 RMK A01 T01810168  RH  092%=      5-min Rain = 0
KTAS 241306Z 08005KT 18/17 A2997 RMK A01 T01810168  RH  092%=      5-min Rain = 0
KTAS 241307Z 08005KT 18/17 A2997 RMK A01 T01810168  RH  092%=      5-min Rain = 0
KTAS 241308Z 07006KT 18/17 A2997 RMK A01 T01810168  RH  092%=      5-min Rain = 0
KTAS 241309Z 08005KT 18/17 A2997 RMK A01 T01810168  RH  092%=      5-min Rain = 0
KTAS 241310Z 08006KT 18/17 A2997 RMK A01 T01810168  RH  092%=      5-min Rain = 0
KTAS 241311Z 08005KT 18/17 A2997 RMK A01 T01810169  RH  092%=      5-min Rain = 0
KTAS 241312Z 08006KT 18/17 A2997 RMK A01 T01810169  RH  093%=      5-min Rain = 0
KTAS 241313Z 08007KT 18/17 A2997 RMK A01 T01810169  RH  093%=      5-min Rain = 0
KTAS 241314Z 08006KT 18/17 A2997 RMK A01 T01810169  RH  093%=      5-min Rain = 0
KTAS 241315Z 08007KT 18/17 A2997 RMK A01 T01820170  RH  093%=      5-min Rain = 0
KTAS 241316Z 08007KT 18/17 A2997 RMK A01 T01820170  RH  093%=      5-min Rain = 0
KTAS 241317Z 08007KT 18/17 A2997 RMK A01 T01820170  RH  093%=      5-min Rain = 0
KTAS 241318Z 08007KT 18/17 A2997 RMK A01 T01820170  RH  093%=      5-min Rain = 0
KTAS 241319Z 08007KT 18/17 A2997 RMK A01 T01820171  RH  093%=      5-min Rain = 0
KTAS 241320Z 08006KT 18/17 A2997 RMK A01 T01820171  RH  093%=      5-min Rain = 0
KTAS 241321Z 08006KT 18/17 A2997 RMK A01 T01830171  RH  093%=      5-min Rain = 0
KTAS 241322Z 07007KT 18/17 A2997 RMK A01 T01830171  RH  093%=      5-min Rain = 0
KTAS 241323Z 08006KT 18/17 A2997 RMK A01 T01830172  RH  093%=      5-min Rain = 0
KTAS 241324Z 09006KT 18/17 A2997 RMK A01 T01840173  RH  093%=      5-min Rain = 0
KTAS 241325Z 09006KT 18/17 A2997 RMK A01 T01840173  RH  093%=      5-min Rain = 0
KTAS 241326Z 09007KT 18/17 A2997 RMK A01 T01840173  RH  093%=      5-min Rain = 0
KTAS 241327Z 09008KT 18/17 A2997 RMK A01 T01840173  RH  093%=      5-min Rain = 0
KTAS 241328Z 09007KT 18/17 A2997 RMK A01 T01840173  RH  093%=      5-min Rain = 0
KTAS 241329Z 08006KT 19/17 A2997 RMK A01 T01850174  RH  093%=      5-min Rain = 0
KTAS 241330Z 08007KT 19/17 A2997 RMK A01 T01850174  RH  093%=      5-min Rain = 0
KTAS 241331Z 09007KT 19/17 A2997 RMK A01 T01850174  RH  093%=      5-min Rain = 0
KTAS 241332Z 09006KT 19/17 A2997 RMK A01 T01850174  RH  093%=      5-min Rain = 0
KTAS 241333Z 09006KT 19/18 A2997 RMK A01 T01860175  RH  093%=      5-min Rain = 0
KTAS 241334Z 09005KT 19/18 A2997 RMK A01 T01870176  RH  093%=      5-min Rain = 0
KTAS 241335Z 09006KT 19/18 A2997 RMK A01 T01870176  RH  093%=      5-min Rain = 0
KTAS 241336Z 09006KT 19/18 A2997 RMK A01 T01870177  RH  093%=      5-min Rain = 0
KTAS 241337Z 09006KT 19/18 A2997 RMK A01 T01870176  RH  093%=      5-min Rain = 0
KTAS 241338Z 10007KT 19/18 A2997 RMK A01 T01870175  RH  093%=      5-min Rain = 0
KTAS 241339Z 09006KT 19/18 A2997 RMK A01 T01870175  RH  093%=      5-min Rain = 0
KTAS 241340Z 09005KT 19/18 A2997 RMK A01 T01880177  RH  093%=      5-min Rain = 0
KTAS 241341Z 09005KT 19/18 A2997 RMK A01 T01880177  RH  093%=      5-min Rain = 0
KTAS 241342Z 09005KT 19/18 A2997 RMK A01 T01890177  RH  093%=      5-min Rain = 0
KTAS 241343Z 08006KT 19/18 A2997 RMK A01 T01890177  RH  093%=      5-min Rain = 0
KTAS 241344Z 09006KT 19/18 A2997 RMK A01 T01890177  RH  093%=      5-min Rain = 0
KTAS 241345Z 09006KT 19/18 A2997 RMK A01 T01900178  RH  093%=      5-min Rain = 0
KTAS 241346Z 10005KT 19/18 A2997 RMK A01 T01900178  RH  093%=      5-min Rain = 0
KTAS 241347Z 10006KT 19/18 A2997 RMK A01 T01900178  RH  093%=      5-min Rain = 0
KTAS 241348Z 10006KT 19/18 A2997 RMK A01 T01910179  RH  093%=      5-min Rain = 0
KTAS 241349Z 09007KT 19/18 A2997 RMK A01 T01910179  RH  093%=      5-min Rain = 0
KTAS 241350Z 09006KT 19/18 A2997 RMK A01 T01910179  RH  093%=      5-min Rain = 0
KTAS 241351Z 10006KT 19/18 A2997 RMK A01 T01920180  RH  093%=      5-min Rain = 0
KTAS 241352Z 10007KT 19/18 A2997 RMK A01 T01920180  RH  093%=      5-min Rain = 0
KTAS 241353Z 10008KT 19/18 A2997 RMK A01 T01920179  RH  092%=      5-min Rain = 0
KTAS 241354Z 10007KT 19/18 A2997 RMK A01 T01930180  RH  092%=      5-min Rain = 0
KTAS 241355Z 09007KT 19/18 A2997 RMK A01 T01930180  RH  092%=      5-min Rain = 0
KTAS 241356Z 09007KT 19/18 A2997 RMK A01 T01930180  RH  092%=      5-min Rain = 0
KTAS 241357Z 10006KT 19/18 A2997 RMK A01 T01940182  RH  092%=      5-min Rain = 0
KTAS 241358Z 10006KT 20/18 A2997 RMK A01 T01950182  RH  092%=      5-min Rain = 0
KTAS 241359Z 10007KT 20/18 A2997 RMK A01 T01950182  RH  092%=      5-min Rain = 0
KTAS 241400Z 11007KT 20/18 A2997 RMK A01 T01950182  RH  092%=      5-min Rain = 0
KTAS 241401Z 11006KT 19/18 A2997 RMK A01 T01940181  RH  092%=      5-min Rain = 0
KTAS 241402Z 10006KT 20/18 A2997 RMK A01 T01950183  RH  093%=      5-min Rain = 0
KTAS 241403Z 11007KT 20/18 A2997 RMK A01 T01950182  RH  092%=      5-min Rain = 0
KTAS 241404Z 10007KT 20/18 A2997 RMK A01 T01950183  RH  093%=      5-min Rain = 0
KTAS 241405Z 11006KT 20/18 A2997 RMK A01 T01960184  RH  093%=      5-min Rain = 0
KTAS 241406Z 11006KT 20/19 A2997 RMK A01 T01970185  RH  093%=      5-min Rain = 0
KTAS 241407Z 11008KT 20/19 A2997 RMK A01 T01970186  RH  093%=      5-min Rain = 0
KTAS 241408Z 11007KT 20/19 A2997 RMK A01 T01980185  RH  093%=      5-min Rain = 0
KTAS 241409Z 11008KT 20/19 A2997 RMK A01 T01980186  RH  093%=      5-min Rain = 0
KTAS 241410Z 11008KT 20/19 A2997 RMK A01 T01980186  RH  092%=      5-min Rain = 0
KTAS 241411Z 12008KT 20/19 A2997 RMK A01 T01990186  RH  092%=      5-min Rain = 0
KTAS 241412Z 11008KT 20/19 A2997 RMK A01 T01980185  RH  092%=      5-min Rain = 0
KTAS 241413Z 11008KT 20/19 A2997 RMK A01 T01980186  RH  093%=      5-min Rain = 0
KTAS 241414Z 11007KT 20/19 A2997 RMK A01 T01980187  RH  093%=      5-min Rain = 0
KTAS 241415Z 13007KT 20/19 A2997 RMK A01 T01990187  RH  093%=      5-min Rain = 0
KTAS 241416Z 12007KT 20/19 A2997 RMK A01 T01980187  RH  093%=      5-min Rain = 0
KTAS 241417Z 11007KT 20/19 A2997 RMK A01 T01980186  RH  093%=      5-min Rain = 0
KTAS 241418Z 11007KT 20/19 A2997 RMK A01 T01970186  RH  093%=      5-min Rain = 0
KTAS 241419Z 10007KT 20/19 A2997 RMK A01 T01970186  RH  093%=      5-min Rain = 0
KTAS 241420Z 11007KT 20/19 A2997 RMK A01 T01980187  RH  094%=      5-min Rain = 0
KTAS 241421Z 12007KT 20/19 A2997 RMK A01 T01980188  RH  094%=      5-min Rain = 0
KTAS 241422Z 12008KT 20/19 A2997 RMK A01 T01990189  RH  094%=      5-min Rain = 0
KTAS 241423Z 13007KT 20/19 A2997 RMK A01 T02000190  RH  094%=      5-min Rain = 0
KTAS 241424Z 12007KT 20/19 A2997 RMK A01 T02000190  RH  094%=      5-min Rain = 0
KTAS 241425Z 11007KT 20/19 A2997 RMK A01 T02010190  RH  094%=      5-min Rain = 0
KTAS 241426Z 12008KT 20/19 A2997 RMK A01 T02010191  RH  094%=      5-min Rain = 0
KTAS 241427Z 12008KT 20/19 A2997 RMK A01 T02010190  RH  093%=      5-min Rain = 0
KTAS 241428Z 13007KT 20/19 A2997 RMK A01 T02010190  RH  093%=      5-min Rain = 0
KTAS 241429Z 12005KT 20/19 A2997 RMK A01 T02010191  RH  094%=      5-min Rain = 0
KTAS 241430Z 13007KT 20/19 A2997 RMK A01 T02010191  RH  094%=      5-min Rain = 0
KTAS 241431Z 13006KT 20/19 A2997 RMK A01 T02010191  RH  094%=      5-min Rain = 0
KTAS 241432Z 13007KT 20/19 A2997 RMK A01 T02020191  RH  094%=      5-min Rain = 0
KTAS 241433Z 13006KT 20/19 A2997 RMK A01 T02020192  RH  094%=      5-min Rain = 0
KTAS 241434Z 13007KT 20/19 A2997 RMK A01 T02030193  RH  094%=      5-min Rain = 0
KTAS 241435Z 12006KT 20/19 A2997 RMK A01 T02030193  RH  094%=      5-min Rain = 0
KTAS 241436Z 12008KT 20/19 A2997 RMK A01 T02030193  RH  094%=      5-min Rain = 0
KTAS 241437Z 13008G13KT 20/19 A2997 RMK A01 T02040194  RH  094%=      5-min Rain = 0
KTAS 241438Z 13009KT 21/20 A2997 RMK A01 T02060195  RH  094%=      5-min Rain = 0
KTAS 241439Z 13010KT 21/19 A2997 RMK A01 T02060194  RH  093%=      5-min Rain = 0
KTAS 241440Z 14011KT 21/19 A2997 RMK A01 T02070194  RH  092%=      5-min Rain = 0
KTAS 241441Z 14011KT 21/19 A2997 RMK A01 T02070193  RH  092%=      5-min Rain = 0
KTAS 241442Z 14011KT 21/20 A2997 RMK A01 T02090195  RH  092%=      5-min Rain = 0
KTAS 241443Z 14009KT 21/20 A2997 RMK A01 T02110196  RH  091%=      5-min Rain = 0
KTAS 241444Z 13009KT 21/20 A2997 RMK A01 T02140198  RH  091%=      5-min Rain = 0
KTAS 241445Z 14010KT 22/20 A2997 RMK A01 T02150198  RH  090%=      5-min Rain = 0
KTAS 241446Z 15010KT 22/20 A2997 RMK A01 T02150197  RH  089%=      5-min Rain = 0
KTAS 241447Z 13009KT 22/20 A2997 RMK A01 T02160198  RH  089%=      5-min Rain = 0
KTAS 241448Z 14009KT 22/20 A2997 RMK A01 T02170200  RH  090%=      5-min Rain = 0
KTAS 241449Z 13011KT 22/20 A2997 RMK A01 T02180199  RH  089%=      5-min Rain = 0
KTAS 241450Z 13009KT 22/20 A2997 RMK A01 T02180199  RH  089%=      5-min Rain = 0
KTAS 241451Z 14011KT 22/20 A2997 RMK A01 T02170198  RH  089%=      5-min Rain = 0
KTAS 241452Z 14010KT 22/20 A2997 RMK A01 T02170198  RH  089%=      5-min Rain = 0
KTAS 241453Z 15010KT 22/20 A2997 RMK A01 T02160198  RH  089%=      5-min Rain = 0
KTAS 241454Z 15010KT 22/20 A2997 RMK A01 T02170198  RH  089%=      5-min Rain = 0
KTAS 241455Z 14010KT 22/20 A2997 RMK A01 T02170199  RH  089%=      5-min Rain = 0
KTAS 241456Z 14009KT 22/20 A2997 RMK A01 T02170198  RH  089%=      5-min Rain = 0
KTAS 241457Z 14009KT 22/20 A2997 RMK A01 T02160197  RH  089%=      5-min Rain = 0
KTAS 241458Z 15009KT 22/20 A2997 RMK A01 T02160198  RH  090%=      5-min Rain = 0
KTAS 241459Z 15010KT 22/20 A2997 RMK A01 T02160199  RH  090%=      5-min Rain = 0
KTAS 241500Z 14011KT 22/20 A2997 RMK A01 T02160199  RH  090%=      5-min Rain = 0
KTAS 241501Z 15009KT 22/20 A2997 RMK A01 T02160200  RH  091%=      5-min Rain = 0
KTAS 241502Z 15011KT 22/20 A2997 RMK A01 T02160200  RH  091%=      5-min Rain = 0
KTAS 241503Z 15011KT 22/20 A2997 RMK A01 T02170201  RH  091%=      5-min Rain = 0
KTAS 241504Z 15013KT 22/20 A2997 RMK A01 T02180201  RH  090%=      5-min Rain = 0
KTAS 241505Z 15012KT 22/20 A2997 RMK A01 T02190201  RH  090%=      5-min Rain = 0
KTAS 241506Z 15012KT 22/20 A2997 RMK A01 T02220204  RH  090%=      5-min Rain = 0
KTAS 241507Z 15011KT 23/21 A2997 RMK A01 T02260207  RH  089%=      5-min Rain = 0
KTAS 241508Z 14012KT 23/21 A2997 RMK A01 T02270206  RH  088%=      5-min Rain = 0
KTAS 241509Z 15011KT 23/21 A2997 RMK A01 T02270205  RH  087%=      5-min Rain = 0
KTAS 241510Z 15013KT 23/21 A2997 RMK A01 T02270205  RH  087%=      5-min Rain = 0
KTAS 241511Z 15013KT 23/20 A2998 RMK A01 T02270203  RH  087%=      5-min Rain = 0
KTAS 241512Z 15013KT 23/20 A2998 RMK A01 T02250201  RH  086%=      5-min Rain = 0
KTAS 241513Z 15012KT 22/20 A2998 RMK A01 T02240203  RH  088%=      5-min Rain = 0
KTAS 241514Z 16013KT 22/20 A2998 RMK A01 T02240203  RH  088%=      5-min Rain = 0
KTAS 241515Z 16009KT 23/21 A2998 RMK A01 T02250206  RH  089%=      5-min Rain = 0
KTAS 241516Z 14011KT 23/21 A2998 RMK A01 T02270206  RH  088%=      5-min Rain = 0
KTAS 241517Z 15011KT 23/21 A2998 RMK A01 T02280206  RH  088%=      5-min Rain = 0
KTAS 241518Z 14011KT 23/21 A2998 RMK A01 T02280205  RH  087%=      5-min Rain = 0
KTAS 241519Z 15012KT 23/21 A2998 RMK A01 T02280205  RH  087%=      5-min Rain = 0
KTAS 241520Z 15010KT 23/21 A2998 RMK A01 T02290206  RH  087%=      5-min Rain = 0
KTAS 241521Z 15012KT 23/21 A2998 RMK A01 T02290206  RH  087%=      5-min Rain = 0
KTAS 241522Z 15011KT 23/20 A2997 RMK A01 T02280204  RH  086%=      5-min Rain = 0
KTAS 241523Z 15011KT 23/21 A2997 RMK A01 T02290207  RH  087%=      5-min Rain = 0
KTAS 241524Z 14011KT 23/21 A2997 RMK A01 T02300207  RH  087%=      5-min Rain = 0
KTAS 241525Z 15010KT 23/21 A2997 RMK A01 T02320209  RH  087%=      5-min Rain = 0
KTAS 241526Z 15011KT 23/21 A2997 RMK A01 T02330208  RH  086%=      5-min Rain = 0
KTAS 241527Z 15011KT 23/21 A2997 RMK A01 T02320207  RH  086%=      5-min Rain = 0
KTAS 241528Z 14011KT 23/21 A2997 RMK A01 T02320207  RH  086%=      5-min Rain = 0
KTAS 241529Z 14012KT 23/21 A2997 RMK A01 T02310205  RH  085%=      5-min Rain = 0
KTAS 241530Z 14013KT 23/20 A2997 RMK A01 T02300204  RH  085%=      5-min Rain = 0
KTAS 241531Z 14012KT 23/20 A2997 RMK A01 T02280203  RH  085%=      5-min Rain = 0
KTAS 241532Z 13012KT 23/20 A2997 RMK A01 T02280204  RH  086%=      5-min Rain = 0
KTAS 241533Z 14013KT 23/21 A2998 RMK A01 T02290205  RH  086%=      5-min Rain = 0
KTAS 241534Z 14011KT 23/21 A2998 RMK A01 T02300205  RH  086%=      5-min Rain = 0
KTAS 241535Z 13011KT 23/21 A2998 RMK A01 T02310206  RH  086%=      5-min Rain = 0
KTAS 241536Z 14011KT 23/21 A2998 RMK A01 T02320207  RH  086%=      5-min Rain = 0
KTAS 241537Z 14012KT 23/20 A2998 RMK A01 T02300204  RH  085%=      5-min Rain = 0
KTAS 241538Z 13010KT 23/20 A2998 RMK A01 T02290203  RH  086%=      5-min Rain = 0
KTAS 241539Z 13010KT 23/20 A2998 RMK A01 T02280204  RH  086%=      5-min Rain = 0
KTAS 241540Z 13009KT 23/21 A2998 RMK A01 T02280206  RH  087%=      5-min Rain = 0
KTAS 241541Z 12009KT 23/21 A2998 RMK A01 T02290206  RH  087%=      5-min Rain = 0
KTAS 241542Z 12010KT 23/21 A2998 RMK A01 T02290206  RH  087%=      5-min Rain = 0
KTAS 241543Z 12011KT 23/20 A2998 RMK A01 T02280204  RH  086%=      5-min Rain = 0
KTAS 241544Z 13010KT 23/20 A2998 RMK A01 T02270203  RH  086%=      5-min Rain = 0
KTAS 241545Z 13007KT 23/20 A2998 RMK A01 T02260204  RH  087%=      5-min Rain = 0
KTAS 241546Z 13010KT 23/20 A2998 RMK A01 T02260204  RH  088%=      5-min Rain = 0
KTAS 241547Z 13012KT 23/20 A2998 RMK A01 T02250203  RH  087%=      5-min Rain = 0
KTAS 241548Z 13010KT 22/20 A2998 RMK A01 T02240202  RH  087%=      5-min Rain = 0
KTAS 241549Z 13007KT 22/20 A2998 RMK A01 T02240203  RH  088%=      5-min Rain = 0
KTAS 241550Z 13008KT 23/21 A2998 RMK A01 T02250205  RH  089%=      5-min Rain = 0
KTAS 241551Z 13010KT 23/21 A2998 RMK A01 T02260205  RH  088%=      5-min Rain = 0
KTAS 241552Z 13009KT 23/21 A2998 RMK A01 T02270206  RH  088%=      5-min Rain = 0
KTAS 241553Z 13011KT 23/21 A2998 RMK A01 T02280206  RH  087%=      5-min Rain = 0
KTAS 241554Z 13011KT 23/20 A2998 RMK A01 T02270204  RH  087%=      5-min Rain = 0
KTAS 241555Z 13008KT 23/20 A2998 RMK A01 T02260203  RH  087%=      5-min Rain = 0
KTAS 241556Z 12008KT 23/21 A2998 RMK A01 T02260205  RH  088%=      5-min Rain = 0
KTAS 241557Z 13012KT 23/20 A2998 RMK A01 T02260203  RH  087%=      5-min Rain = 0
KTAS 241558Z 13010KT 22/20 A2998 RMK A01 T02240202  RH  087%=      5-min Rain = 0
KTAS 241559Z 13011KT 22/20 A2998 RMK A01 T02240203  RH  088%=      5-min Rain = 0
KTAS 241600Z 13010KT 22/20 A2998 RMK A01 T02240203  RH  088%=      5-min Rain = 0
KTAS 241601Z 13008KT 23/20 A2998 RMK A01 T02250204  RH  088%=      5-min Rain = 0
KTAS 241602Z 13010KT 23/20 A2998 RMK A01 T02250204  RH  088%=      5-min Rain = 0
KTAS 241603Z 13009KT 23/20 A2998 RMK A01 T02250204  RH  088%=      5-min Rain = 0
KTAS 241604Z 14009KT 23/20 A2998 RMK A01 T02250204  RH  088%=      5-min Rain = 0
KTAS 241605Z 14010KT 23/20 A2998 RMK A01 T02260204  RH  088%=      5-min Rain = 0
KTAS 241606Z 13008KT 23/21 A2998 RMK A01 T02260205  RH  088%=      5-min Rain = 0
KTAS 241607Z 13007KT 23/21 A2998 RMK A01 T02270207  RH  088%=      5-min Rain = 0
KTAS 241608Z 13009KT 23/21 A2998 RMK A01 T02280207  RH  088%=      5-min Rain = 0
KTAS 241609Z 13010KT 23/20 A2998 RMK A01 T02270204  RH  087%=      5-min Rain = 0
KTAS 241610Z 12008KT 23/21 A2998 RMK A01 T02270205  RH  087%=      5-min Rain = 0
KTAS 241611Z 13010KT 23/21 A2998 RMK A01 T02270205  RH  087%=      5-min Rain = 0
KTAS 241612Z 13011KT 23/21 A2998 RMK A01 T02270205  RH  087%=      5-min Rain = 0
KTAS 241613Z 12008KT 23/21 A2998 RMK A01 T02280206  RH  087%=      5-min Rain = 0
KTAS 241614Z 12011KT 23/21 A2998 RMK A01 T02290206  RH  087%=      5-min Rain = 0
KTAS 241615Z 12009KT 23/21 A2998 RMK A01 T02290207  RH  087%=      5-min Rain = 0
KTAS 241616Z 12008KT 23/21 A2998 RMK A01 T02320211  RH  088%=      5-min Rain = 0
KTAS 241617Z 12010KT 23/21 A2998 RMK A01 T02330210  RH  087%=      5-min Rain = 0
KTAS 241618Z 12010KT 23/21 A2998 RMK A01 T02320207  RH  086%=      5-min Rain = 0
KTAS 241619Z 12010KT 23/21 A2998 RMK A01 T02310207  RH  086%=      5-min Rain = 0
KTAS 241620Z 12010KT 23/21 A2998 RMK A01 T02300205  RH  086%=      5-min Rain = 0
KTAS 241621Z 12010KT 23/20 A2998 RMK A01 T02270204  RH  087%=      5-min Rain = 0
KTAS 241622Z 13008KT 23/21 A2998 RMK A01 T02260205  RH  088%=      5-min Rain = 0
KTAS 241623Z 12006KT 23/20 A2998 RMK A01 T02250204  RH  088%=      5-min Rain = 0
KTAS 241624Z 12007KT 23/21 A2998 RMK A01 T02250206  RH  089%=      5-min Rain = 0
KTAS 241625Z 11009KT 22/20 A2997 RMK A01 T02240204  RH  088%=      5-min Rain = 0
KTAS 241626Z 12010KT 22/21 A2997 RMK A01 T02240205  RH  089%=      5-min Rain = 0
KTAS 241627Z 12010KT 22/21 A2997 RMK A01 T02240205  RH  089%=      5-min Rain = 0
KTAS 241628Z 11008KT 23/21 A2997 RMK A01 T02250207  RH  089%=      5-min Rain = 0
KTAS 241629Z 11010KT 23/21 A2997 RMK A01 T02270207  RH  089%=      5-min Rain = 0
KTAS 241630Z 12008KT 23/21 A2997 RMK A01 T02280208  RH  089%=      5-min Rain = 0
KTAS 241631Z 12010KT 23/21 A2997 RMK A01 T02290210  RH  089%=      5-min Rain = 0
KTAS 241632Z 11011KT 23/21 A2998 RMK A01 T02300208  RH  088%=      5-min Rain = 0
KTAS 241633Z 11009KT 23/21 A2998 RMK A01 T02300208  RH  087%=      5-min Rain = 0
KTAS 241634Z 11009KT 23/21 A2998 RMK A01 T02310210  RH  088%=      5-min Rain = 0
KTAS 241635Z 12010KT 23/21 A2998 RMK A01 T02320211  RH  088%=      5-min Rain = 0
KTAS 241636Z 13009KT 23/21 A2998 RMK A01 T02330210  RH  087%=      5-min Rain = 0
KTAS 241637Z 13008KT 24/21 A2998 RMK A01 T02350210  RH  086%=      5-min Rain = 0
KTAS 241638Z 13008KT 24/21 A2998 RMK A01 T02350210  RH  086%=      5-min Rain = 0
KTAS 241639Z 12011KT 24/21 A2997 RMK A01 T02350210  RH  086%=      5-min Rain = 0
KTAS 241640Z 12010G15KT 23/21 A2997 RMK A01 T02340208  RH  085%=      5-min Rain = 0
KTAS 241641Z 14009KT 24/21 A2997 RMK A01 T02350210  RH  086%=      5-min Rain = 0
KTAS 241642Z 13009KT 24/21 A2997 RMK A01 T02360212  RH  086%=      5-min Rain = 0
KTAS 241643Z 13013KT 24/21 A2997 RMK A01 T02370211  RH  085%=      5-min Rain = 0
KTAS 241644Z 13011KT 24/21 A2998 RMK A01 T02370211  RH  085%=      5-min Rain = 0
KTAS 241645Z 13010KT 24/21 A2998 RMK A01 T02380211  RH  085%=      5-min Rain = 0
KTAS 241646Z 14012KT 24/21 A2997 RMK A01 T02390212  RH  085%=      5-min Rain = 0
KTAS 241647Z 14011KT 24/21 A2997 RMK A01 T02420212  RH  084%=      5-min Rain = 0
KTAS 241648Z 13012KT 24/21 A2997 RMK A01 T02430214  RH  084%=      5-min Rain = 0
KTAS 241649Z 13013KT 24/21 A2997 RMK A01 T02420211  RH  083%=      5-min Rain = 0
KTAS 241650Z 13014KT 24/21 A2997 RMK A01 T02410211  RH  083%=      5-min Rain = 0
KTAS 241651Z 14014KT 24/21 A2997 RMK A01 T02400209  RH  083%=      5-min Rain = 0
KTAS 241652Z 13010KT 24/21 A2997 RMK A01 T02400211  RH  084%=      5-min Rain = 0
KTAS 241653Z 12010KT 24/21 A2997 RMK A01 T02420214  RH  084%=      5-min Rain = 0
KTAS 241654Z 12013KT 24/21 A2997 RMK A01 T02430214  RH  084%=      5-min Rain = 0
KTAS 241655Z 13013KT 24/21 A2997 RMK A01 T02440214  RH  083%=      5-min Rain = 0
KTAS 241656Z 13011KT 25/22 A2997 RMK A01 T02460215  RH  083%=      5-min Rain = 0
KTAS 241657Z 13010KT 25/22 A2997 RMK A01 T02480218  RH  083%=      5-min Rain = 0
KTAS 241658Z 13013KT 25/22 A2997 RMK A01 T02500218  RH  082%=      5-min Rain = 0
KTAS 241659Z 13012KT 25/21 A2996 RMK A01 T02490214  RH  081%=      5-min Rain = 0
KTAS 241700Z 12012KT 25/21 A2996 RMK A01 T02470212  RH  081%=      5-min Rain = 0
KTAS 241701Z 13011KT 25/21 A2996 RMK A01 T02470213  RH  081%=      5-min Rain = 0
KTAS 241702Z 13009KT 25/21 A2996 RMK A01 T02470214  RH  082%=      5-min Rain = 0
KTAS 241703Z 14010KT 25/22 A2996 RMK A01 T02470215  RH  082%=      5-min Rain = 0
KTAS 241704Z 13009KT 25/22 A2996 RMK A01 T02490217  RH  082%=      5-min Rain = 0
KTAS 241705Z 14012KT 25/22 A2996 RMK A01 T02500215  RH  081%=      5-min Rain = 0
KTAS 241706Z 14012KT 25/21 A2996 RMK A01 T02490212  RH  080%=      5-min Rain = 0
KTAS 241707Z 13014KT 25/21 A2996 RMK A01 T02480212  RH  080%=      5-min Rain = 0
KTAS 241708Z 14013KT 25/21 A2996 RMK A01 T02480214  RH  081%=      5-min Rain = 0
KTAS 241709Z 15014KT 25/21 A2996 RMK A01 T02490212  RH  080%=      5-min Rain = 0
KTAS 241710Z 15015KT 25/21 A2996 RMK A01 T02490213  RH  080%=      5-min Rain = 0
KTAS 241711Z 13012KT 25/22 A2996 RMK A01 T02500215  RH  081%=      5-min Rain = 0
KTAS 241712Z 14012KT 25/22 A2996 RMK A01 T02530217  RH  081%=      5-min Rain = 0
KTAS 241713Z 14013KT 26/22 A2996 RMK A01 T02550216  RH  079%=      5-min Rain = 0
KTAS 241714Z 15012KT 26/22 A2996 RMK A01 T02550215  RH  078%=      5-min Rain = 0
KTAS 241715Z 15014KT 26/22 A2996 RMK A01 T02580219  RH  079%=      5-min Rain = 0
KTAS 241716Z 15015KT 26/22 A2996 RMK A01 T02590215  RH  077%=      5-min Rain = 0
KTAS 241717Z 15013KT 26/22 A2996 RMK A01 T02590215  RH  077%=      5-min Rain = 0
KTAS 241718Z 15013KT 26/22 A2996 RMK A01 T02600217  RH  077%=      5-min Rain = 0
KTAS 241719Z 16013KT 26/22 A2996 RMK A01 T02610217  RH  077%=      5-min Rain = 0
KTAS 241720Z 15011KT 26/22 A2996 RMK A01 T02600217  RH  077%=      5-min Rain = 0
KTAS 241721Z 15016KT 26/22 A2996 RMK A01 T02600215  RH  076%=      5-min Rain = 0
KTAS 241722Z 16015KT 26/21 A2996 RMK A01 T02570213  RH  077%=      5-min Rain = 0
KTAS 241723Z 15014KT 26/22 A2996 RMK A01 T02550215  RH  078%=      5-min Rain = 0
KTAS 241724Z 14014KT 26/22 A2996 RMK A01 T02560217  RH  079%=      5-min Rain = 0
KTAS 241725Z 14015KT 25/21 A2996 RMK A01 T02540213  RH  078%=      5-min Rain = 0
KTAS 241726Z 13013KT 25/21 A2996 RMK A01 T02530212  RH  078%=      5-min Rain = 0
KTAS 241727Z 14014KT 26/22 A2995 RMK A01 T02550217  RH  079%=      5-min Rain = 0
KTAS 241728Z 14013KT 26/22 A2995 RMK A01 T02580216  RH  078%=      5-min Rain = 0
KTAS 241729Z 15013KT 26/22 A2995 RMK A01 T02590218  RH  078%=      5-min Rain = 0
KTAS 241730Z 14012KT 26/22 A2995 RMK A01 T02610219  RH  077%=      5-min Rain = 0
KTAS 241731Z 15015KT 26/22 A2995 RMK A01 T02630220  RH  077%=      5-min Rain = 0
KTAS 241732Z 15016KT 26/22 A2996 RMK A01 T02640218  RH  076%=      5-min Rain = 0
KTAS 241733Z 15013KT 26/22 A2996 RMK A01 T02640218  RH  076%=      5-min Rain = 0
KTAS 241734Z 15011G16KT 27/22 A2996 RMK A01 T02660223  RH  077%=      5-min Rain = 0
KTAS 241735Z 15015G20KT 27/22 A2995 RMK A01 T02680222  RH  076%=      5-min Rain = 0
KTAS 241736Z 14015KT 27/22 A2995 RMK A01 T02680218  RH  074%=      5-min Rain = 0
KTAS 241737Z 15017KT 27/22 A2995 RMK A01 T02650216  RH  074%=      5-min Rain = 0
KTAS 241738Z 14014KT 27/22 A2995 RMK A01 T02650218  RH  075%=      5-min Rain = 0
KTAS 241739Z 15014KT 27/22 A2996 RMK A01 T02650215  RH  074%=      5-min Rain = 0
KTAS 241740Z 16014KT 27/22 A2996 RMK A01 T02650216  RH  074%=      5-min Rain = 0
KTAS 241741Z 15012KT 27/22 A2995 RMK A01 T02660219  RH  076%=      5-min Rain = 0
KTAS 241742Z 15013KT 27/22 A2995 RMK A01 T02670219  RH  075%=      5-min Rain = 0
KTAS 241743Z 15015KT 27/22 A2995 RMK A01 T02660217  RH  074%=      5-min Rain = 0
KTAS 241744Z 16016KT 26/21 A2995 RMK A01 T02630211  RH  073%=      5-min Rain = 0
KTAS 241745Z 15014KT 26/21 A2995 RMK A01 T02600210  RH  074%=      5-min Rain = 0
KTAS 241746Z 15014KT 26/21 A2995 RMK A01 T02590212  RH  076%=      5-min Rain = 0
KTAS 241747Z 15017KT 26/21 A2995 RMK A01 T02570208  RH  074%=      5-min Rain = 0
KTAS 241748Z 15017KT 26/21 A2995 RMK A01 T02560211  RH  076%=      5-min Rain = 0
KTAS 241749Z 15016KT 26/21 A2995 RMK A01 T02550212  RH  077%=      5-min Rain = 0
KTAS 241750Z 14016KT 25/21 A2995 RMK A01 T02540212  RH  078%=      5-min Rain = 0
KTAS 241751Z 15014KT 25/21 A2995 RMK A01 T02540212  RH  077%=      5-min Rain = 0
KTAS 241752Z 15015G21KT 25/21 A2995 RMK A01 T02540210  RH  077%=      5-min Rain = 0
KTAS 241753Z 15015KT 25/21 A2995 RMK A01 T02530210  RH  077%=      5-min Rain = 0
KTAS 241754Z 15013KT 25/21 A2995 RMK A01 T02520208  RH  077%=      5-min Rain = 0
KTAS 241755Z 15011KT 25/21 A2995 RMK A01 T02530211  RH  078%=      5-min Rain = 0
KTAS 241756Z 15011KT 25/21 A2995 RMK A01 T02540213  RH  078%=      5-min Rain = 0
KTAS 241757Z 14012KT 26/21 A2995 RMK A01 T02550213  RH  078%=      5-min Rain = 0
KTAS 241758Z 15014KT 26/21 A2994 RMK A01 T02560213  RH  077%=      5-min Rain = 0
KTAS 241759Z 16014KT 26/21 A2994 RMK A01 T02570213  RH  077%=      5-min Rain = 0
KTAS 241800Z 15011KT 26/21 A2994 RMK A01 T02590214  RH  076%=      5-min Rain = 0
KTAS 241801Z 14015KT 26/22 A2994 RMK A01 T02610216  RH  076%=      5-min Rain = 0
KTAS 241802Z 15017KT 26/21 A2994 RMK A01 T02600212  RH  074%=      5-min Rain = 0
KTAS 241803Z 15016KT 26/21 A2994 RMK A01 T02590208  RH  073%=      5-min Rain = 0
KTAS 241804Z 15017KT 26/21 A2994 RMK A01 T02580207  RH  073%=      5-min Rain = 0
KTAS 241805Z 15016KT 26/21 A2993 RMK A01 T02590208  RH  074%=      5-min Rain = 0
KTAS 241806Z 15015KT 26/21 A2993 RMK A01 T02600209  RH  074%=      5-min Rain = 0
KTAS 241807Z 16014KT 26/21 A2993 RMK A01 T02610211  RH  074%=      5-min Rain = 0
KTAS 241808Z 16016KT 26/21 A2993 RMK A01 T02610209  RH  073%=      5-min Rain = 0
KTAS 241809Z 16014KT 26/21 A2993 RMK A01 T02600210  RH  074%=      5-min Rain = 0
KTAS 241810Z 15014KT 26/21 A2993 RMK A01 T02610213  RH  074%=      5-min Rain = 0
KTAS 241811Z 15016KT 26/21 A2993 RMK A01 T02640214  RH  074%=      5-min Rain = 0
KTAS 241812Z 15017KT 27/21 A2992 RMK A01 T02680213  RH  072%=      5-min Rain = 0
KTAS 241813Z 15014KT 27/21 A2992 RMK A01 T02700210  RH  070%=      5-min Rain = 0
KTAS 241814Z 16015KT 27/21 A2992 RMK A01 T02690210  RH  070%=      5-min Rain = 0
KTAS 241815Z 17016KT 27/21 A2992 RMK A01 T02680211  RH  071%=      5-min Rain = 0
KTAS 241816Z 15016KT 27/21 A2992 RMK A01 T02680210  RH  070%=      5-min Rain = 0
KTAS 241817Z 15014KT 27/21 A2992 RMK A01 T02670207  RH  070%=      5-min Rain = 0
KTAS 241818Z 15016KT 27/21 A2993 RMK A01 T02670209  RH  071%=      5-min Rain = 0
KTAS 241819Z 16014KT 27/21 A2993 RMK A01 T02660209  RH  071%=      5-min Rain = 0
KTAS 241820Z 16016G21KT 27/21 A2993 RMK A01 T02670211  RH  071%=      5-min Rain = 0
KTAS 241821Z 16017KT 27/21 A2993 RMK A01 T02680205  RH  069%=      5-min Rain = 0
KTAS 241822Z 16017G22KT 27/21 A2993 RMK A01 T02680205  RH  068%=      5-min Rain = 0
KTAS 241823Z 16017KT 27/21 A2993 RMK A01 T02690207  RH  069%=      5-min Rain = 0
KTAS 241824Z 17016KT 27/21 A2993 RMK A01 T02710210  RH  069%=      5-min Rain = 0
KTAS 241825Z 17018KT 27/21 A2993 RMK A01 T02700206  RH  068%=      5-min Rain = 0
KTAS 241826Z 17016KT 27/21 A2993 RMK A01 T02700207  RH  068%=      5-min Rain = 0
KTAS 241827Z 17017KT 27/21 A2993 RMK A01 T02720207  RH  067%=      5-min Rain = 0
KTAS 241828Z 17019KT 27/20 A2993 RMK A01 T02700203  RH  067%=      5-min Rain = 0
KTAS 241829Z 17017KT 27/20 A2993 RMK A01 T02700204  RH  067%=      5-min Rain = 0
KTAS 241830Z 17017KT 27/21 A2993 RMK A01 T02730206  RH  067%=      5-min Rain = 0
KTAS 241831Z 17016KT 27/20 A2993 RMK A01 T02740201  RH  064%=      5-min Rain = 0
KTAS 241832Z 17017KT 27/20 A2992 RMK A01 T02740202  RH  065%=      5-min Rain = 0
KTAS 241833Z 17016KT 27/20 A2992 RMK A01 T02740203  RH  065%=      5-min Rain = 0
KTAS 241834Z 17016G21KT 27/21 A2992 RMK A01 T02740207  RH  067%=      5-min Rain = 0
KTAS 241835Z 16016KT 27/21 A2992 RMK A01 T02740208  RH  067%=      5-min Rain = 0
KTAS 241836Z 18019KT 27/21 A2992 RMK A01 T02720205  RH  067%=      5-min Rain = 0
KTAS 241837Z 17020KT 27/20 A2992 RMK A01 T02700202  RH  066%=      5-min Rain = 0
KTAS 241838Z 17018KT 27/20 A2992 RMK A01 T02690201  RH  066%=      5-min Rain = 0
KTAS 241839Z 15018KT 27/20 A2992 RMK A01 T02680200  RH  066%=      5-min Rain = 0
KTAS 241840Z 16016KT 27/20 A2992 RMK A01 T02700201  RH  066%=      5-min Rain = 0
KTAS 241841Z 15015G21KT 27/21 A2992 RMK A01 T02710205  RH  067%=      5-min Rain = 0
KTAS 241842Z 16014KT 28/21 A2992 RMK A01 T02750211  RH  068%=      5-min Rain = 0
KTAS 241843Z 16018KT 28/21 A2992 RMK A01 T02770207  RH  065%=      5-min Rain = 0
KTAS 241844Z 17018KT 28/20 A2992 RMK A01 T02760203  RH  064%=      5-min Rain = 0
KTAS 241845Z 17018KT 27/20 A2993 RMK A01 T02730200  RH  064%=      5-min Rain = 0
KTAS 241846Z 17016KT 27/20 A2993 RMK A01 T02720202  RH  065%=      5-min Rain = 0
KTAS 241847Z 17016KT 27/20 A2992 RMK A01 T02740204  RH  065%=      5-min Rain = 0
KTAS 241848Z 17017KT 27/20 A2992 RMK A01 T02740200  RH  064%=      5-min Rain = 0
KTAS 241849Z 17015KT 27/20 A2993 RMK A01 T02720199  RH  064%=      5-min Rain = 0
KTAS 241850Z 18015KT 27/20 A2993 RMK A01 T02710201  RH  065%=      5-min Rain = 0
KTAS 241851Z 18013KT 27/20 A2992 RMK A01 T02700200  RH  065%=      5-min Rain = 0
KTAS 241852Z 17012KT 27/20 A2993 RMK A01 T02700199  RH  065%=      5-min Rain = 0
KTAS 241853Z 16016KT 27/20 A2993 RMK A01 T02690199  RH  065%=      5-min Rain = 0
KTAS 241854Z 17016KT 27/20 A2992 RMK A01 T02680199  RH  066%=      5-min Rain = 0
KTAS 241855Z 17014G19KT 27/21 A2992 RMK A01 T02710205  RH  068%=      5-min Rain = 0
KTAS 241856Z 16016KT 28/21 A2992 RMK A01 T02750209  RH  067%=      5-min Rain = 0
KTAS 241857Z 16014KT 28/21 A2992 RMK A01 T02780210  RH  067%=      5-min Rain = 0
KTAS 241858Z 17017KT 28/21 A2992 RMK A01 T02790212  RH  067%=      5-min Rain = 0
KTAS 241859Z 17016KT 28/21 A2992 RMK A01 T02770209  RH  067%=      5-min Rain = 0
KTAS 241900Z 15017KT 27/21 A2992 RMK A01 T02740208  RH  067%=      5-min Rain = 0
KTAS 241901Z 16016KT 27/21 A2992 RMK A01 T02720209  RH  069%=      5-min Rain = 0
KTAS 241902Z 16016KT 27/21 A2992 RMK A01 T02710210  RH  069%=      5-min Rain = 0
KTAS 241903Z 16019KT 27/21 A2992 RMK A01 T02730211  RH  069%=      5-min Rain = 0
KTAS 241904Z 16018KT 27/21 A2992 RMK A01 T02730209  RH  068%=      5-min Rain = 0
KTAS 241905Z 16019KT 27/21 A2992 RMK A01 T02730208  RH  067%=      5-min Rain = 0
KTAS 241906Z 16016KT 27/21 A2992 RMK A01 T02720206  RH  067%=      5-min Rain = 0
KTAS 241907Z 16016KT 28/21 A2992 RMK A01 T02750209  RH  067%=      5-min Rain = 0
KTAS 241908Z 16019KT 28/21 A2992 RMK A01 T02760207  RH  066%=      5-min Rain = 0
KTAS 241909Z 15019KT 27/21 A2992 RMK A01 T02730206  RH  067%=      5-min Rain = 0
KTAS 241910Z 16019G24KT 27/21 A2992 RMK A01 T02720207  RH  068%=      5-min Rain = 0
KTAS 241911Z 15019KT 27/21 A2992 RMK A01 T02700205  RH  068%=      5-min Rain = 0
KTAS 241912Z 16013G19KT 27/21 A2992 RMK A01 T02700207  RH  069%=      5-min Rain = 0
KTAS 241913Z 15016KT 27/21 A2991 RMK A01 T02700208  RH  069%=      5-min Rain = 0
KTAS 241914Z 15017KT 27/21 A2991 RMK A01 T02710206  RH  067%=      5-min Rain = 0
KTAS 241915Z 16018KT 27/21 A2991 RMK A01 T02720207  RH  067%=      5-min Rain = 0
KTAS 241916Z 16020KT 27/21 A2991 RMK A01 T02740207  RH  067%=      5-min Rain = 0
KTAS 241917Z 16019KT 28/21 A2991 RMK A01 T02750207  RH  066%=      5-min Rain = 0
KTAS 241918Z 16017KT 28/21 A2991 RMK A01 T02780209  RH  066%=      5-min Rain = 0
KTAS 241919Z 16017KT 28/21 A2991 RMK A01 T02770207  RH  066%=      5-min Rain = 0
KTAS 241920Z 16020KT 28/21 A2991 RMK A01 T02760205  RH  065%=      5-min Rain = 0
KTAS 241921Z 16018G23KT 28/21 A2991 RMK A01 T02760205  RH  066%=      5-min Rain = 0
KTAS 241922Z 15019KT 28/21 A2991 RMK A01 T02770205  RH  065%=      5-min Rain = 0
KTAS 241923Z 17020KT 28/20 A2991 RMK A01 T02770204  RH  064%=      5-min Rain = 0
KTAS 241924Z 16019KT 28/20 A2991 RMK A01 T02760202  RH  064%=      5-min Rain = 0
KTAS 241925Z 17022KT 28/20 A2991 RMK A01 T02770202  RH  064%=      5-min Rain = 0
KTAS 241926Z 15020KT 28/20 A2991 RMK A01 T02770203  RH  064%=      5-min Rain = 0
KTAS 241927Z 16023KT 28/20 A2991 RMK A01 T02750200  RH  064%=      5-min Rain = 0
KTAS 241928Z 16021KT 27/20 A2991 RMK A01 T02730198  RH  064%=      5-min Rain = 0
KTAS 241929Z 16022KT 27/20 A2991 RMK A01 T02710198  RH  064%=      5-min Rain = 0
KTAS 241930Z 16022KT 27/20 A2991 RMK A01 T02690198  RH  065%=      5-min Rain = 0
KTAS 241931Z 16021KT 27/20 A299 RMK A01 T02680199  RH  066%=      5-min Rain = 0
KTAS 241932Z 17021G27KT 27/20 A299 RMK A01 T02680200  RH  066%=      5-min Rain = 0
KTAS 241933Z 16023KT 27/20 A299 RMK A01 T02680201  RH  067%=      5-min Rain = 0
KTAS 241934Z 16018KT 27/20 A299 RMK A01 T02690203  RH  067%=      5-min Rain = 0
KTAS 241935Z 16021KT 27/21 A299 RMK A01 T02740209  RH  068%=      5-min Rain = 0
KTAS 241936Z 17021KT 28/21 A299 RMK A01 T02770210  RH  067%=      5-min Rain = 0
KTAS 241937Z 17020G25KT 28/21 A299 RMK A01 T02770208  RH  066%=      5-min Rain = 0
KTAS 241938Z 16018G24KT 28/21 A2989 RMK A01 T02790212  RH  067%=      5-min Rain = 0
KTAS 241939Z 15017KT 28/21 A2989 RMK A01 T02810214  RH  067%=      5-min Rain = 0
KTAS 241940Z 16021KT 28/21 A2989 RMK A01 T02840211  RH  065%=      5-min Rain = 0
KTAS 241941Z 16022KT 28/21 A2989 RMK A01 T02810205  RH  063%=      5-min Rain = 0
KTAS 241942Z 16018KT 28/20 A2989 RMK A01 T02800204  RH  063%=      5-min Rain = 0
KTAS 241943Z 15021G26KT 28/21 A2989 RMK A01 T02810209  RH  065%=      5-min Rain = 0
KTAS 241944Z 16021KT 28/21 A2989 RMK A01 T02820206  RH  063%=      5-min Rain = 0
KTAS 241945Z 16020KT 28/21 A2989 RMK A01 T02820207  RH  064%=      5-min Rain = 0
KTAS 241946Z 17023G28KT 28/21 A2989 RMK A01 T02820206  RH  063%=      5-min Rain = 0
KTAS 241947Z 17020KT 28/21 A2989 RMK A01 T02830209  RH  064%=      5-min Rain = 0
KTAS 241948Z 17020KT 28/21 A2989 RMK A01 T02830208  RH  064%=      5-min Rain = 0
KTAS 241949Z 17021G27KT 28/21 A2988 RMK A01 T02830210  RH  064%=      5-min Rain = 0
KTAS 241950Z 17020KT 28/21 A2988 RMK A01 T02820207  RH  064%=      5-min Rain = 0
KTAS 241951Z 16018G23KT 28/21 A2988 RMK A01 T02820210  RH  065%=      5-min Rain = 0
KTAS 241952Z 17022KT 28/21 A2988 RMK A01 T02820209  RH  065%=      5-min Rain = 0
KTAS 241953Z 16021G26KT 28/21 A2988 RMK A01 T02810210  RH  065%=      5-min Rain = 0
KTAS 241954Z 16022G27KT 28/21 A2988 RMK A01 T02810208  RH  064%=      5-min Rain = 0
KTAS 241955Z 17020KT 28/21 A2988 RMK A01 T02810208  RH  065%=      5-min Rain = 0
KTAS 241956Z 17018KT 28/21 A2988 RMK A01 T02810210  RH  065%=      5-min Rain = 0
KTAS 241957Z 15019G24KT 28/21 A2989 RMK A01 T02820211  RH  066%=      5-min Rain = 0
KTAS 241958Z 16021KT 28/21 A2989 RMK A01 T02830214  RH  066%=      5-min Rain = 0
KTAS 241959Z 15020KT 28/22 A2989 RMK A01 T02840216  RH  067%=      5-min Rain = 0
KTAS 242000Z 17022KT 29/21 A2989 RMK A01 T02850214  RH  065%=      5-min Rain = 0
KTAS 242001Z 16021KT 28/21 A2989 RMK A01 T02840210  RH  064%=      5-min Rain = 0
KTAS 242002Z 16018KT 28/21 A2989 RMK A01 T02810211  RH  065%=      5-min Rain = 0
KTAS 242003Z 15019KT 28/21 A2989 RMK A01 T02820214  RH  067%=      5-min Rain = 0
KTAS 242004Z 15019KT 28/22 A299 RMK A01 T02840215  RH  066%=      5-min Rain = 0
KTAS 242005Z 16018KT 28/21 A299 RMK A01 T02840212  RH  065%=      5-min Rain = 0
KTAS 242006Z 16014G19KT 28/21 A299 RMK A01 T02830214  RH  066%=      5-min Rain = 0
KTAS 242007Z 17014KT 29/22 A2989 RMK A01 T02850216  RH  066%=      5-min Rain = 0
KTAS 242008Z 16015KT 28/21 A2989 RMK A01 T02840214  RH  066%=      5-min Rain = 0
KTAS 242009Z 17020KT 28/21 A2989 RMK A01 T02830209  RH  064%=      5-min Rain = 0
KTAS 242010Z 17019G24KT 28/21 A2989 RMK A01 T02800208  RH  065%=      5-min Rain = 0
KTAS 242011Z 16019G24KT 28/21 A2989 RMK A01 T02790209  RH  066%=      5-min Rain = 0
KTAS 242012Z 17019G25KT 28/21 A2989 RMK A01 T02780210  RH  067%=      5-min Rain = 0
KTAS 242013Z 17020KT 28/21 A2989 RMK A01 T02770209  RH  066%=      5-min Rain = 0
KTAS 242014Z 16021KT 28/21 A2989 RMK A01 T02770209  RH  066%=      5-min Rain = 0
KTAS 242015Z 17019KT 28/21 A2989 RMK A01 T02770207  RH  066%=      5-min Rain = 0
KTAS 242016Z 18018G25KT 28/21 A2989 RMK A01 T02780208  RH  066%=      5-min Rain = 0
KTAS 242017Z 17017KT 28/21 A2989 RMK A01 T02790211  RH  066%=      5-min Rain = 0
KTAS 242018Z 16017KT 28/21 A2988 RMK A01 T02800210  RH  066%=      5-min Rain = 0
KTAS 242019Z 17021KT 28/21 A2988 RMK A01 T02790205  RH  064%=      5-min Rain = 0
KTAS 242020Z 18018KT 28/20 A2988 RMK A01 T02780204  RH  064%=      5-min Rain = 0
KTAS 242021Z 18018G24KT 28/20 A2988 RMK A01 T02790204  RH  064%=      5-min Rain = 0
KTAS 242022Z 18018G25KT 28/21 A2988 RMK A01 T02800207  RH  064%=      5-min Rain = 0
KTAS 242023Z 18026KT 28/21 A2988 RMK A01 T02820206  RH  063%=      5-min Rain = 0
KTAS 242024Z 17020G26KT 28/21 A2988 RMK A01 T02830206  RH  063%=      5-min Rain = 0
KTAS 242025Z 17026KT 28/21 A2988 RMK A01 T02840205  RH  062%=      5-min Rain = 0
KTAS 242026Z 17026KT 28/20 A2987 RMK A01 T02810202  RH  062%=      5-min Rain = 0
KTAS 242027Z 17025G30KT 28/20 A2987 RMK A01 T02790202  RH  063%=      5-min Rain = 0
KTAS 242028Z 17028KT 28/20 A2987 RMK A01 T02780200  RH  062%=      5-min Rain = 0
KTAS 242029Z 18023G29KT 28/20 A2987 RMK A01 T02810202  RH  062%=      5-min Rain = 0
KTAS 242030Z 17024G34KT 28/21 A2987 RMK A01 T02840205  RH  062%=      5-min Rain = 0
KTAS 242031Z 17028KT 28/20 A2987 RMK A01 T02840202  RH  061%=      5-min Rain = 0
KTAS 242032Z 17025G30KT 28/20 A2987 RMK A01 T02840203  RH  061%=      5-min Rain = 0
KTAS 242033Z 18027KT 28/20 A2987 RMK A01 T02840202  RH  061%=      5-min Rain = 0
KTAS 242034Z 18025KT 29/20 A2987 RMK A01 T02850202  RH  061%=      5-min Rain = 0
KTAS 242035Z 17021G27KT 29/20 A2987 RMK A01 T02870201  RH  060%=      5-min Rain = 0
KTAS 242036Z 17025KT 29/20 A2987 RMK A01 T02870200  RH  059%=      5-min Rain = 0
KTAS 242037Z 17022KT 29/20 A2987 RMK A01 T02850198  RH  059%=      5-min Rain = 0
KTAS 242038Z 18024G30KT 28/20 A2987 RMK A01 T02840197  RH  059%=      5-min Rain = 0
KTAS 242039Z 18020KT 28/20 A2988 RMK A01 T02820199  RH  061%=      5-min Rain = 0
KTAS 242040Z 17023G28KT 28/20 A2988 RMK A01 T02810199  RH  061%=      5-min Rain = 0
KTAS 242041Z 17024KT 28/20 A2987 RMK A01 T02810198  RH  061%=      5-min Rain = 0
KTAS 242042Z 17023G28KT 28/20 A2987 RMK A01 T02800198  RH  061%=      5-min Rain = 0
KTAS 242043Z 18019KT 28/20 A2987 RMK A01 T02830202  RH  062%=      5-min Rain = 0
KTAS 242044Z 17022G27KT 29/20 A2987 RMK A01 T02870204  RH  061%=      5-min Rain = 0
KTAS 242045Z 16021KT 29/20 A2987 RMK A01 T02870202  RH  060%=      5-min Rain = 0
KTAS 242046Z 17019KT 28/20 A2987 RMK A01 T02840200  RH  060%=      5-min Rain = 0
KTAS 242047Z 17020G28KT 28/20 A2987 RMK A01 T02820201  RH  062%=      5-min Rain = 0
KTAS 242048Z 17023KT 28/20 A2987 RMK A01 T02810201  RH  062%=      5-min Rain = 0
KTAS 242049Z 17020KT 28/20 A2987 RMK A01 T02790201  RH  062%=      5-min Rain = 0
KTAS 242050Z 16021KT 28/20 A2987 RMK A01 T02790202  RH  063%=      5-min Rain = 0
KTAS 242051Z 16023KT 28/20 A2987 RMK A01 T02770202  RH  063%=      5-min Rain = 0
KTAS 242052Z 16019KT 28/20 A2987 RMK A01 T02770203  RH  064%=      5-min Rain = 0
KTAS 242053Z 17023KT 28/20 A2987 RMK A01 T02770203  RH  064%=      5-min Rain = 0
KTAS 242054Z 16021G27KT 28/20 A2987 RMK A01 T02780204  RH  064%=      5-min Rain = 0
KTAS 242055Z 16022KT 28/20 A2987 RMK A01 T02780204  RH  064%=      5-min Rain = 0
KTAS 242056Z 16022KT 28/20 A2987 RMK A01 T02770204  RH  064%=      5-min Rain = 0
KTAS 242057Z 17022KT 28/20 A2987 RMK A01 T02770204  RH  065%=      5-min Rain = 0
KTAS 242058Z 17020G26KT 28/21 A2987 RMK A01 T02790205  RH  064%=      5-min Rain = 0
KTAS 242059Z 17019G24KT 28/21 A2987 RMK A01 T02830208  RH  064%=      5-min Rain = 0
KTAS 242100Z 17021KT 28/21 A2987 RMK A01 T02840206  RH  063%=      5-min Rain = 0
KTAS 242101Z 17020KT 28/21 A2987 RMK A01 T02830205  RH  063%=      5-min Rain = 0
KTAS 242102Z 17022G28KT 28/20 A2987 RMK A01 T02810204  RH  063%=      5-min Rain = 0
KTAS 242103Z 17021G30KT 28/20 A2987 RMK A01 T02790203  RH  063%=      5-min Rain = 0
KTAS 242104Z 17023KT 28/20 A2987 RMK A01 T02770200  RH  063%=      5-min Rain = 0
KTAS 242105Z 17020G25KT 28/20 A2987 RMK A01 T02760200  RH  063%=      5-min Rain = 0
KTAS 242106Z 17022KT 28/20 A2987 RMK A01 T02770201  RH  063%=      5-min Rain = 0
KTAS 242107Z 17024KT 28/20 A2987 RMK A01 T02770197  RH  062%=      5-min Rain = 0
KTAS 242108Z 17021KT 28/20 A2987 RMK A01 T02770199  RH  062%=      5-min Rain = 0
KTAS 242109Z 17021KT 28/20 A2987 RMK A01 T02780199  RH  062%=      5-min Rain = 0
KTAS 242110Z 17022KT 28/20 A2987 RMK A01 T02790198  RH  061%=      5-min Rain = 0
KTAS 242111Z 17020KT 28/20 A2987 RMK A01 T02790198  RH  062%=      5-min Rain = 0
KTAS 242112Z 17017G24KT 28/20 A2987 RMK A01 T02780201  RH  063%=      5-min Rain = 0
KTAS 242113Z 18025KT 28/20 A2987 RMK A01 T02780201  RH  063%=      5-min Rain = 0
KTAS 242114Z 18019G25KT 28/20 A2987 RMK A01 T02780202  RH  063%=      5-min Rain = 0
KTAS 242115Z 18019G26KT 28/20 A2987 RMK A01 T02760201  RH  064%=      5-min Rain = 0
KTAS 242116Z 17017G22KT 28/20 A2987 RMK A01 T02760202  RH  064%=      5-min Rain = 0
KTAS 242117Z 17022G29KT 28/20 A2988 RMK A01 T02760203  RH  064%=      5-min Rain = 0
KTAS 242118Z 17023G29KT 28/20 A2988 RMK A01 T02760201  RH  064%=      5-min Rain = 0
KTAS 242119Z 17024G29KT 28/20 A2988 RMK A01 T02770200  RH  063%=      5-min Rain = 0
KTAS 242120Z 18020G25KT 28/20 A2988 RMK A01 T02800202  RH  063%=      5-min Rain = 0
KTAS 242121Z 17024KT 28/20 A2987 RMK A01 T02830203  RH  062%=      5-min Rain = 0
KTAS 242122Z 16025G31KT 28/20 A2987 RMK A01 T02830202  RH  061%=      5-min Rain = 0
KTAS 242123Z 17022G29KT 28/20 A2987 RMK A01 T02820202  RH  062%=      5-min Rain = 0
KTAS 242124Z 17022G27KT 28/20 A2987 RMK A01 T02830202  RH  061%=      5-min Rain = 0
KTAS 242125Z 17019KT 29/21 A2987 RMK A01 T02850206  RH  062%=      5-min Rain = 0
KTAS 242126Z 17023G28KT 29/20 A2987 RMK A01 T02870204  RH  061%=      5-min Rain = 0
KTAS 242127Z 16024KT 29/20 A2987 RMK A01 T02850200  RH  060%=      5-min Rain = 0
KTAS 242128Z 17021G28KT 29/20 A2987 RMK A01 T02850201  RH  061%=      5-min Rain = 0
KTAS 242129Z 18018G23KT 28/20 A2987 RMK A01 T02840201  RH  061%=      5-min Rain = 0
KTAS 242130Z 17016KT 28/20 A2987 RMK A01 T02830200  RH  061%=      5-min Rain = 0
KTAS 242131Z 17017KT 28/20 A2987 RMK A01 T02810200  RH  061%=      5-min Rain = 0
KTAS 242132Z 18019KT 28/20 A2986 RMK A01 T02800199  RH  062%=      5-min Rain = 0
KTAS 242133Z 17023KT 28/20 A2986 RMK A01 T02790198  RH  062%=      5-min Rain = 0
KTAS 242134Z 17022G28KT 28/20 A2986 RMK A01 T02780199  RH  062%=      5-min Rain = 0
KTAS 242135Z 18025G31KT 28/20 A2986 RMK A01 T02780199  RH  062%=      5-min Rain = 0
KTAS 242136Z 17022KT 28/20 A2986 RMK A01 T02790198  RH  061%=      5-min Rain = 0
KTAS 242137Z 16024KT 28/20 A2986 RMK A01 T02780196  RH  061%=      5-min Rain = 0
KTAS 242138Z 17025KT 28/20 A2985 RMK A01 T02770198  RH  062%=      5-min Rain = 0
KTAS 242139Z 16021G26KT 28/20 A2985 RMK A01 T02770203  RH  064%=      5-min Rain = 0
KTAS 242140Z 17021KT 28/21 A2985 RMK A01 T02800205  RH  064%=      5-min Rain = 0
KTAS 242141Z 16024G31KT 28/21 A2985 RMK A01 T02830206  RH  063%=      5-min Rain = 0
KTAS 242142Z 17024G30KT 28/20 A2985 RMK A01 T02830203  RH  062%=      5-min Rain = 0
KTAS 242143Z 16025KT 28/20 A2985 RMK A01 T02820203  RH  062%=      5-min Rain = 0
KTAS 242144Z 17026G31KT 28/20 A2985 RMK A01 T02800201  RH  062%=      5-min Rain = 0
KTAS 242145Z 17019G25KT 28/20 A2985 RMK A01 T02780202  RH  063%=      5-min Rain = 0
KTAS 242146Z 17021G27KT 28/20 A2985 RMK A01 T02770201  RH  064%=      5-min Rain = 0
KTAS 242147Z 17025G31KT 27/20 A2985 RMK A01 T02740198  RH  063%=      5-min Rain = 0
KTAS 242148Z 16024G31KT 27/20 A2985 RMK A01 T02710196  RH  064%=      5-min Rain = 0
KTAS 242149Z 16021G27KT 27/20 A2985 RMK A01 T02690196  RH  065%=      5-min Rain = 0
KTAS 242150Z 17025KT 27/20 A2986 RMK A01 T02680195  RH  065%=      5-min Rain = 0
KTAS 242151Z 17023G29KT 27/20 A2986 RMK A01 T02670196  RH  065%=      5-min Rain = 0
KTAS 242152Z 18023G28KT 27/20 A2986 RMK A01 T02660198  RH  066%=      5-min Rain = 0
KTAS 242153Z 17021KT 27/20 A2986 RMK A01 T02660199  RH  067%=      5-min Rain = 0
KTAS 242154Z 17021KT 27/20 A2986 RMK A01 T02650198  RH  067%=      5-min Rain = 0
KTAS 242155Z 16024KT 26/20 A2986 RMK A01 T02640199  RH  067%=      5-min Rain = 0
KTAS 242156Z 16022KT 26/20 A2986 RMK A01 T02640199  RH  068%=      5-min Rain = 0
KTAS 242157Z 16021G27KT 26/20 A2986 RMK A01 T02630200  RH  068%=      5-min Rain = 0
KTAS 242158Z 17023G28KT 26/20 A2986 RMK A01 T02620200  RH  069%=      5-min Rain = 0
KTAS 242159Z 16023G28KT 26/20 A2986 RMK A01 T02620200  RH  068%=      5-min Rain = 0
KTAS 242200Z 16024KT 26/20 A2986 RMK A01 T02620198  RH  068%=      5-min Rain = 0
KTAS 242201Z 17022KT 26/20 A2986 RMK A01 T02620198  RH  068%=      5-min Rain = 0
KTAS 242202Z 17023KT 26/20 A2986 RMK A01 T02630198  RH  067%=      5-min Rain = 0
KTAS 242203Z 17023G28KT 26/20 A2986 RMK A01 T02640198  RH  067%=      5-min Rain = 0
KTAS 242204Z 17024G30KT 27/20 A2986 RMK A01 T02650198  RH  067%=      5-min Rain = 0
KTAS 242205Z 17023KT 27/20 A2986 RMK A01 T02670197  RH  066%=      5-min Rain = 0
KTAS 242206Z 18025KT 27/20 A2985 RMK A01 T02680197  RH  065%=      5-min Rain = 0
KTAS 242207Z 17028G34KT 27/20 A2985 RMK A01 T02680197  RH  065%=      5-min Rain = 0
KTAS 242208Z 17021G26KT 27/20 A2986 RMK A01 T02690198  RH  065%=      5-min Rain = 0
KTAS 242209Z 17025KT 27/20 A2986 RMK A01 T02690197  RH  065%=      5-min Rain = 0
KTAS 242210Z 17024KT 27/20 A2986 RMK A01 T02710197  RH  064%=      5-min Rain = 0
KTAS 242211Z 17027KT 27/20 A2986 RMK A01 T02710197  RH  064%=      5-min Rain = 0
KTAS 242212Z 17025G32KT 27/20 A2986 RMK A01 T02700197  RH  064%=      5-min Rain = 0
KTAS 242213Z 17026KT 27/20 A2986 RMK A01 T02700196  RH  064%=      5-min Rain = 0
KTAS 242214Z 17022G28KT 27/20 A2986 RMK A01 T02700197  RH  064%=      5-min Rain = 0
KTAS 242215Z 17024G31KT 27/20 A2986 RMK A01 T02690197  RH  065%=      5-min Rain = 0
KTAS 242216Z 16025G30KT 27/20 A2986 RMK A01 T02690195  RH  064%=      5-min Rain = 0
KTAS 242217Z 16023G28KT 27/19 A2986 RMK A01 T02690194  RH  063%=      5-min Rain = 0
KTAS 242218Z 17024G33KT 27/19 A2986 RMK A01 T02690194  RH  064%=      5-min Rain = 0
KTAS 242219Z 17027G32KT 27/20 A2986 RMK A01 T02690196  RH  064%=      5-min Rain = 0
KTAS 242220Z 17024G29KT 27/20 A2986 RMK A01 T02690197  RH  065%=      5-min Rain = 0
KTAS 242221Z 17025KT 27/20 A2986 RMK A01 T02700198  RH  065%=      5-min Rain = 0
KTAS 242222Z 17024KT 27/20 A2985 RMK A01 T02720199  RH  064%=      5-min Rain = 0
KTAS 242223Z 16020KT 27/20 A2985 RMK A01 T02720200  RH  065%=      5-min Rain = 0
KTAS 242224Z 16026KT 27/20 A2985 RMK A01 T02710199  RH  065%=      5-min Rain = 0
KTAS 242225Z 16020G25KT 27/20 A2985 RMK A01 T02710201  RH  065%=      5-min Rain = 0
KTAS 242226Z 16024G30KT 27/20 A2985 RMK A01 T02720200  RH  065%=      5-min Rain = 0
KTAS 242227Z 17019G26KT 27/20 A2985 RMK A01 T02700200  RH  065%=      5-min Rain = 0
KTAS 242228Z 17024KT 27/20 A2985 RMK A01 T02710200  RH  065%=      5-min Rain = 0
KTAS 242229Z 17024G29KT 27/20 A2985 RMK A01 T02720199  RH  064%=      5-min Rain = 0
KTAS 242230Z 17023G28KT 27/20 A2985 RMK A01 T02730199  RH  064%=      5-min Rain = 0
KTAS 242231Z 17022G27KT 27/20 A2985 RMK A01 T02740200  RH  064%=      5-min Rain = 0
KTAS 242232Z 17019G25KT 28/20 A2985 RMK A01 T02750201  RH  064%=      5-min Rain = 0
KTAS 242233Z 17019G24KT 28/20 A2985 RMK A01 T02760204  RH  065%=      5-min Rain = 0
KTAS 242234Z 17023KT 28/20 A2985 RMK A01 T02770201  RH  063%=      5-min Rain = 0
KTAS 242235Z 17023KT 28/20 A2985 RMK A01 T02770200  RH  063%=      5-min Rain = 0
KTAS 242236Z 16019G24KT 28/20 A2985 RMK A01 T02770201  RH  064%=      5-min Rain = 0
KTAS 242237Z 16022G27KT 28/20 A2985 RMK A01 T02770202  RH  063%=      5-min Rain = 0
KTAS 242238Z 16025KT 28/20 A2985 RMK A01 T02760198  RH  062%=      5-min Rain = 0
KTAS 242239Z 17024G29KT 28/20 A2985 RMK A01 T02750198  RH  063%=      5-min Rain = 0
KTAS 242240Z 17025G30KT 27/20 A2985 RMK A01 T02740197  RH  063%=      5-min Rain = 0
KTAS 242241Z 16024KT 27/20 A2985 RMK A01 T02740198  RH  063%=      5-min Rain = 0
KTAS 242242Z 16024KT 27/20 A2985 RMK A01 T02740199  RH  064%=      5-min Rain = 0
KTAS 242243Z 17023G28KT 27/20 A2985 RMK A01 T02730199  RH  064%=      5-min Rain = 0
KTAS 242244Z 17025KT 27/20 A2985 RMK A01 T02730198  RH  064%=      5-min Rain = 0
KTAS 242245Z 16022G30KT 27/20 A2985 RMK A01 T02720198  RH  064%=      5-min Rain = 0
KTAS 242246Z 17026KT 27/20 A2985 RMK A01 T02720197  RH  064%=      5-min Rain = 0
KTAS 242247Z 16023G30KT 27/20 A2985 RMK A01 T02720198  RH  064%=      5-min Rain = 0
KTAS 242248Z 16022G28KT 27/20 A2985 RMK A01 T02720198  RH  064%=      5-min Rain = 0
KTAS 242249Z 17020G25KT 27/20 A2985 RMK A01 T02730200  RH  064%=      5-min Rain = 0
KTAS 242250Z 16019G25KT 27/20 A2985 RMK A01 T02730201  RH  065%=      5-min Rain = 0
KTAS 242251Z 17025KT 27/20 A2985 RMK A01 T02730198  RH  064%=      5-min Rain = 0
KTAS 242252Z 16023KT 27/20 A2985 RMK A01 T02710197  RH  064%=      5-min Rain = 0
KTAS 242253Z 17025G30KT 27/20 A2985 RMK A01 T02680195  RH  064%=      5-min Rain = 0
KTAS 242254Z 17023KT 27/20 A2985 RMK A01 T02670196  RH  065%=      5-min Rain = 0
KTAS 242255Z 17020G27KT 27/20 A2985 RMK A01 T02680198  RH  065%=      5-min Rain = 0
KTAS 242256Z 16021G26KT 27/20 A2985 RMK A01 T02700198  RH  065%=      5-min Rain = 0
KTAS 242257Z 17023G28KT 27/20 A2985 RMK A01 T02710199  RH  065%=      5-min Rain = 0
KTAS 242258Z 16023KT 27/20 A2985 RMK A01 T02700196  RH  064%=      5-min Rain = 0
KTAS 242259Z 17025KT 27/20 A2985 RMK A01 T02700196  RH  064%=      5-min Rain = 0
KTAS 242300Z 17025KT 27/20 A2985 RMK A01 T02700196  RH  064%=      5-min Rain = 0
KTAS 242301Z 17024KT 27/20 A2985 RMK A01 T02690197  RH  065%=      5-min Rain = 0
KTAS 242302Z 17023KT 27/20 A2985 RMK A01 T02690197  RH  065%=      5-min Rain = 0
KTAS 242303Z 17021G26KT 27/20 A2985 RMK A01 T02700198  RH  065%=      5-min Rain = 0
KTAS 242304Z 17024KT 27/20 A2985 RMK A01 T02700198  RH  065%=      5-min Rain = 0
KTAS 242305Z 17021G27KT 27/20 A2985 RMK A01 T02680198  RH  065%=      5-min Rain = 0
KTAS 242306Z 16017G23KT 27/20 A2985 RMK A01 T02690201  RH  067%=      5-min Rain = 0
KTAS 242307Z 16020KT 27/20 A2985 RMK A01 T02700201  RH  066%=      5-min Rain = 0
KTAS 242308Z 17017G23KT 27/20 A2985 RMK A01 T02710201  RH  066%=      5-min Rain = 0
KTAS 242309Z 17019KT 27/20 A2985 RMK A01 T02720200  RH  065%=      5-min Rain = 0
KTAS 242310Z 16019G24KT 27/20 A2985 RMK A01 T02720199  RH  065%=      5-min Rain = 0
KTAS 242311Z 16021KT 27/20 A2985 RMK A01 T02720199  RH  064%=      5-min Rain = 0
KTAS 242312Z 16021G27KT 27/20 A2985 RMK A01 T02720198  RH  064%=      5-min Rain = 0
KTAS 242313Z 16019G25KT 27/20 A2985 RMK A01 T02730201  RH  065%=      5-min Rain = 0
KTAS 242314Z 17022G27KT 27/20 A2985 RMK A01 T02730198  RH  064%=      5-min Rain = 0
KTAS 242315Z 17021KT 27/20 A2985 RMK A01 T02720198  RH  064%=      5-min Rain = 0
KTAS 242316Z 16022G28KT 27/20 A2986 RMK A01 T02710197  RH  064%=      5-min Rain = 0
KTAS 242317Z 16018G26KT 27/20 A2986 RMK A01 T02700197  RH  064%=      5-min Rain = 0
KTAS 242318Z 17024KT 27/20 A2986 RMK A01 T02710196  RH  064%=      5-min Rain = 0
KTAS 242319Z 16021G27KT 27/20 A2986 RMK A01 T02700197  RH  064%=      5-min Rain = 0
KTAS 242320Z 16022KT 27/20 A2986 RMK A01 T02700197  RH  064%=      5-min Rain = 0
KTAS 242321Z 17021KT 27/20 A2986 RMK A01 T02700197  RH  064%=      5-min Rain = 0
KTAS 242322Z 17022KT 27/20 A2986 RMK A01 T02700198  RH  065%=      5-min Rain = 0
KTAS 242323Z 17023KT 27/20 A2986 RMK A01 T02690198  RH  065%=      5-min Rain = 0
KTAS 242324Z 16021KT 27/20 A2986 RMK A01 T02690200  RH  066%=      5-min Rain = 0
KTAS 242325Z 16021G26KT 27/20 A2986 RMK A01 T02690199  RH  065%=      5-min Rain = 0
KTAS 242326Z 16023G29KT 27/20 A2986 RMK A01 T02690198  RH  065%=      5-min Rain = 0
KTAS 242327Z 16023G28KT 27/20 A2986 RMK A01 T02670196  RH  065%=      5-min Rain = 0
KTAS 242328Z 16026KT 27/20 A2986 RMK A01 T02660196  RH  066%=      5-min Rain = 0
KTAS 242329Z 17021KT 27/20 A2986 RMK A01 T02650197  RH  067%=      5-min Rain = 0
KTAS 242330Z 17022KT 26/20 A2986 RMK A01 T02630198  RH  067%=      5-min Rain = 0
KTAS 242331Z 16021KT 26/20 A2986 RMK A01 T02630198  RH  068%=      5-min Rain = 0
KTAS 242332Z 16022G29KT 26/20 A2986 RMK A01 T02630198  RH  067%=      5-min Rain = 0
KTAS 242333Z 16027G33KT 26/20 A2986 RMK A01 T02620197  RH  067%=      5-min Rain = 0
KTAS 242334Z 16027KT 26/20 A2986 RMK A01 T02610196  RH  068%=      5-min Rain = 0
KTAS 242335Z 16026KT 26/20 A2986 RMK A01 T02590195  RH  068%=      5-min Rain = 0
KTAS 242336Z 16026G31KT 26/20 A2986 RMK A01 T02580195  RH  068%=      5-min Rain = 0
KTAS 242337Z 16025G33KT 26/20 A2986 RMK A01 T02570196  RH  069%=      5-min Rain = 0
KTAS 242338Z 16025G32KT 26/20 A2986 RMK A01 T02560195  RH  069%=      5-min Rain = 0
KTAS 242339Z 15023G28KT 26/20 A2986 RMK A01 T02560196  RH  069%=      5-min Rain = 0
KTAS 242340Z 16025G31KT 26/20 A2986 RMK A01 T02560195  RH  069%=      5-min Rain = 0
KTAS 242341Z 16023G28KT 26/20 A2986 RMK A01 T02560195  RH  069%=      5-min Rain = 0
KTAS 242342Z 15024G29KT 26/19 A2986 RMK A01 T02560194  RH  069%=      5-min Rain = 0
KTAS 242343Z 16020G29KT 26/20 A2986 RMK A01 T02570195  RH  069%=      5-min Rain = 0
KTAS 242344Z 16022KT 26/20 A2986 RMK A01 T02570195  RH  069%=      5-min Rain = 0
KTAS 242345Z 16023G30KT 26/20 A2986 RMK A01 T02570196  RH  069%=      5-min Rain = 0
KTAS 242346Z 16024G31KT 26/20 A2986 RMK A01 T02570195  RH  068%=      5-min Rain = 0
KTAS 242347Z 16022G29KT 26/20 A2986 RMK A01 T02570195  RH  068%=      5-min Rain = 0
KTAS 242348Z 16021KT 26/20 A2986 RMK A01 T02580196  RH  069%=      5-min Rain = 0
KTAS 242349Z 16025KT 26/20 A2986 RMK A01 T02580195  RH  068%=      5-min Rain = 0
KTAS 242350Z 15024G30KT 26/19 A2986 RMK A01 T02580194  RH  068%=      5-min Rain = 0
KTAS 242351Z 16023G31KT 26/20 A2986 RMK A01 T02580195  RH  068%=      5-min Rain = 0
KTAS 242352Z 16024KT 26/20 A2986 RMK A01 T02570195  RH  069%=      5-min Rain = 0
KTAS 242353Z 16023G29KT 26/20 A2986 RMK A01 T02560196  RH  069%=      5-min Rain = 0
KTAS 242354Z 16024KT 26/20 A2986 RMK A01 T02570196  RH  069%=      5-min Rain = 0
KTAS 242355Z 16024KT 26/20 A2986 RMK A01 T02570196  RH  069%=      5-min Rain = 0
KTAS 242356Z 16022G27KT 26/20 A2986 RMK A01 T02580197  RH  069%=      5-min Rain = 0
KTAS 242357Z 16025KT 26/20 A2986 RMK A01 T02590197  RH  068%=      5-min Rain = 0
KTAS 242358Z 16025G31KT 26/20 A2986 RMK A01 T02590195  RH  068%=      5-min Rain = 0
KTAS 242359Z 16028G33KT 26/19 A2986 RMK A01 T02580194  RH  068%=      5-min Rain = 0
KTAS 250000Z 16028KT 26/19 A2985 RMK A01 T02560193  RH  068%=      5-min Rain = 0
KTAS 250001Z 16023G28KT 26/19 A2986 RMK A01 T02550193  RH  069%=      5-min Rain = 0
KTAS 250002Z 16020G27KT 25/19 A2985 RMK A01 T02540194  RH  069%=      5-min Rain = 0
KTAS 250003Z 16021G26KT 25/19 A2985 RMK A01 T02530193  RH  070%=      5-min Rain = 0
KTAS 250004Z 16021G27KT 25/19 A2985 RMK A01 T02520193  RH  070%=      5-min Rain = 0
KTAS 250005Z 16019G25KT 25/19 A2985 RMK A01 T02510193  RH  070%=      5-min Rain = 0
KTAS 250006Z 16020G27KT 25/19 A2985 RMK A01 T02510194  RH  070%=      5-min Rain = 0
KTAS 250007Z 16020G26KT 25/19 A2985 RMK A01 T02510194  RH  070%=      5-min Rain = 0
KTAS 250008Z 17027G32KT 25/19 A2985 RMK A01 T02510192  RH  069%=      5-min Rain = 0
KTAS 250009Z 16024G30KT 25/19 A2985 RMK A01 T02520191  RH  069%=      5-min Rain = 0
KTAS 250010Z 16021G27KT 25/19 A2985 RMK A01 T02520191  RH  069%=      5-min Rain = 0
KTAS 250011Z 16025KT 25/19 A2985 RMK A01 T02520190  RH  068%=      5-min Rain = 0
KTAS 250012Z 17023G28KT 25/19 A2985 RMK A01 T02520189  RH  068%=      5-min Rain = 0
KTAS 250013Z 17024G29KT 25/19 A2985 RMK A01 T02520191  RH  069%=      5-min Rain = 0
KTAS 250014Z 17022KT 25/19 A2986 RMK A01 T02520192  RH  069%=      5-min Rain = 0
KTAS 250015Z 17022KT 25/19 A2986 RMK A01 T02520192  RH  069%=      5-min Rain = 0
KTAS 250016Z 16017KT 25/19 A2986 RMK A01 T02530194  RH  070%=      5-min Rain = 0
KTAS 250017Z 17018G23KT 25/19 A2986 RMK A01 T02530194  RH  070%=      5-min Rain = 0
KTAS 250018Z 17020KT 25/19 A2986 RMK A01 T02530193  RH  069%=      5-min Rain = 0
KTAS 250019Z 17021G26KT 25/19 A2986 RMK A01 T02530192  RH  069%=      5-min Rain = 0
KTAS 250020Z 16019G27KT 25/19 A2986 RMK A01 T02530194  RH  070%=      5-min Rain = 0
KTAS 250021Z 16022KT 25/19 A2986 RMK A01 T02520191  RH  069%=      5-min Rain = 0
KTAS 250022Z 16023KT 25/19 A2986 RMK A01 T02520190  RH  068%=      5-min Rain = 0
KTAS 250023Z 16026G32KT 25/19 A2986 RMK A01 T02520189  RH  068%=      5-min Rain = 0
KTAS 250024Z 17026KT 25/19 A2986 RMK A01 T02510189  RH  068%=      5-min Rain = 0
KTAS 250025Z 17021KT 25/19 A2986 RMK A01 T02510190  RH  069%=      5-min Rain = 0
KTAS 250026Z 17023G29KT 25/19 A2986 RMK A01 T02510190  RH  069%=      5-min Rain = 0
KTAS 250027Z 17021G28KT 25/19 A2986 RMK A01 T02510190  RH  069%=      5-min Rain = 0
KTAS 250028Z 17023KT 25/19 A2986 RMK A01 T02510190  RH  069%=      5-min Rain = 0
KTAS 250029Z 17024G30KT 25/19 A2986 RMK A01 T02510189  RH  068%=      5-min Rain = 0
KTAS 250030Z 17024KT 25/19 A2986 RMK A01 T02510189  RH  068%=      5-min Rain = 0
KTAS 250031Z 17021G27KT 25/19 A2986 RMK A01 T02510189  RH  069%=      5-min Rain = 0
KTAS 250032Z 17022G27KT 25/19 A2986 RMK A01 T02500189  RH  069%=      5-min Rain = 0
KTAS 250033Z 16022G27KT 25/19 A2986 RMK A01 T02500189  RH  069%=      5-min Rain = 0
KTAS 250034Z 17021G26KT 25/19 A2986 RMK A01 T02500189  RH  069%=      5-min Rain = 0
KTAS 250035Z 17023G31KT 25/19 A2986 RMK A01 T02490189  RH  069%=      5-min Rain = 0
KTAS 250036Z 17022G31KT 25/19 A2986 RMK A01 T02480188  RH  069%=      5-min Rain = 0
KTAS 250037Z 17024KT 25/19 A2986 RMK A01 T02480187  RH  069%=      5-min Rain = 0
KTAS 250038Z 17028G34KT 25/19 A2986 RMK A01 T02480186  RH  068%=      5-min Rain = 0
KTAS 250039Z 17024G30KT 25/19 A2986 RMK A01 T02480185  RH  068%=      5-min Rain = 0
KTAS 250040Z 17019KT 25/19 A2987 RMK A01 T02490187  RH  069%=      5-min Rain = 0
KTAS 250041Z 17023KT 25/19 A2987 RMK A01 T02480187  RH  069%=      5-min Rain = 0
KTAS 250042Z 17023G28KT 25/19 A2987 RMK A01 T02480187  RH  069%=      5-min Rain = 0
KTAS 250043Z 17022G30KT 25/19 A2987 RMK A01 T02480187  RH  069%=      5-min Rain = 0
KTAS 250044Z 17023G28KT 25/19 A2987 RMK A01 T02490187  RH  069%=      5-min Rain = 0
KTAS 250045Z 16023G28KT 25/19 A2987 RMK A01 T02490187  RH  069%=      5-min Rain = 0
KTAS 250046Z 17018KT 25/19 A2987 RMK A01 T02480188  RH  069%=      5-min Rain = 0
KTAS 250047Z 16017KT 25/19 A2987 RMK A01 T02480188  RH  069%=      5-min Rain = 0
KTAS 250048Z 17016KT 25/19 A2987 RMK A01 T02490188  RH  069%=      5-min Rain = 0
KTAS 250049Z 16018G24KT 25/19 A2987 RMK A01 T02490188  RH  069%=      5-min Rain = 0
KTAS 250050Z 16021G27KT 25/19 A2987 RMK A01 T02480187  RH  069%=      5-min Rain = 0
KTAS 250051Z 16020KT 25/19 A2987 RMK A01 T02480186  RH  068%=      5-min Rain = 0
KTAS 250052Z 16019G27KT 25/19 A2987 RMK A01 T02480186  RH  068%=      5-min Rain = 0
KTAS 250053Z 16024G31KT 25/19 A2987 RMK A01 T02480185  RH  068%=      5-min Rain = 0
KTAS 250054Z 16023KT 25/19 A2987 RMK A01 T02480185  RH  068%=      5-min Rain = 0
KTAS 250055Z 16021G27KT 25/19 A2987 RMK A01 T02480185  RH  068%=      5-min Rain = 0
KTAS 250056Z 16018G24KT 25/19 A2987 RMK A01 T02470185  RH  068%=      5-min Rain = 0
KTAS 250057Z 17024G29KT 25/18 A2987 RMK A01 T02470184  RH  068%=      5-min Rain = 0
KTAS 250058Z 16025KT 25/18 A2987 RMK A01 T02470184  RH  068%=      5-min Rain = 0
KTAS 250059Z 16024G29KT 25/18 A2987 RMK A01 T02480184  RH  068%=      5-min Rain = 0
KTAS 250100Z 16022KT 25/18 A2987 RMK A01 T02480184  RH  068%=      5-min Rain = 0
KTAS 250101Z 17021G29KT 25/18 A2987 RMK A01 T02470184  RH  068%=      5-min Rain = 0
KTAS 250102Z 17022G28KT 25/18 A2987 RMK A01 T02470184  RH  068%=      5-min Rain = 0
KTAS 250103Z 17022G27KT 25/18 A2987 RMK A01 T02470184  RH  068%=      5-min Rain = 0
KTAS 250104Z 17021G27KT 25/18 A2988 RMK A01 T02460184  RH  068%=      5-min Rain = 0
KTAS 250105Z 16023KT 25/18 A2988 RMK A01 T02460184  RH  068%=      5-min Rain = 0
KTAS 250106Z 16022KT 25/19 A2988 RMK A01 T02460185  RH  069%=      5-min Rain = 0
KTAS 250107Z 16018G25KT 25/19 A2988 RMK A01 T02450185  RH  069%=      5-min Rain = 0
KTAS 250108Z 16022G28KT 25/19 A2988 RMK A01 T02450185  RH  069%=      5-min Rain = 0
KTAS 250109Z 16023KT 25/18 A2988 RMK A01 T02450184  RH  069%=      5-min Rain = 0
KTAS 250110Z 16025KT 25/18 A2988 RMK A01 T02450184  RH  069%=      5-min Rain = 0
KTAS 250111Z 16021G29KT 25/18 A2988 RMK A01 T02450184  RH  069%=      5-min Rain = 0
KTAS 250112Z 16024KT 25/18 A2988 RMK A01 T02450183  RH  069%=      5-min Rain = 0
KTAS 250113Z 16020KT 25/18 A2988 RMK A01 T02450184  RH  069%=      5-min Rain = 0
KTAS 250114Z 16024G29KT 25/18 A2988 RMK A01 T02450183  RH  069%=      5-min Rain = 0
KTAS 250115Z 16021G26KT 25/18 A2988 RMK A01 T02450183  RH  068%=      5-min Rain = 0
KTAS 250116Z 16019G27KT 24/18 A2988 RMK A01 T02440183  RH  069%=      5-min Rain = 0
KTAS 250117Z 16023KT 24/18 A2988 RMK A01 T02440181  RH  068%=      5-min Rain = 0
KTAS 250118Z 16021KT 24/18 A2988 RMK A01 T02440181  RH  068%=      5-min Rain = 0
KTAS 250119Z 16022KT 24/18 A2988 RMK A01 T02440181  RH  068%=      5-min Rain = 0
KTAS 250120Z 16017KT 24/18 A2988 RMK A01 T02440182  RH  068%=      5-min Rain = 0
KTAS 250121Z 16018KT 24/18 A2988 RMK A01 T02430182  RH  069%=      5-min Rain = 0
KTAS 250122Z 15020KT 24/18 A2988 RMK A01 T02430182  RH  069%=      5-min Rain = 0
KTAS 250123Z 16017KT 24/18 A2988 RMK A01 T02420183  RH  069%=      5-min Rain = 0
KTAS 250124Z 16020KT 24/18 A2988 RMK A01 T02420183  RH  070%=      5-min Rain = 0
KTAS 250125Z 15019KT 24/18 A2988 RMK A01 T02420183  RH  070%=      5-min Rain = 0
KTAS 250126Z 16020KT 24/18 A2988 RMK A01 T02410183  RH  070%=      5-min Rain = 0
KTAS 250127Z 16018KT 24/18 A2988 RMK A01 T02410183  RH  070%=      5-min Rain = 0
KTAS 250128Z 15021KT 24/18 A2988 RMK A01 T02410183  RH  070%=      5-min Rain = 0
KTAS 250129Z 16022KT 24/18 A2988 RMK A01 T02410182  RH  070%=      5-min Rain = 0
KTAS 250130Z 15019G24KT 24/18 A2988 RMK A01 T02410181  RH  069%=      5-min Rain = 0
KTAS 250131Z 16021KT 24/18 A2988 RMK A01 T02400181  RH  070%=      5-min Rain = 0
KTAS 250132Z 15021KT 24/18 A2988 RMK A01 T02400181  RH  070%=      5-min Rain = 0
KTAS 250133Z 16017KT 24/18 A2988 RMK A01 T02400182  RH  070%=      5-min Rain = 0
KTAS 250134Z 16016KT 24/18 A2988 RMK A01 T02390182  RH  070%=      5-min Rain = 0
KTAS 250135Z 15017KT 24/18 A2989 RMK A01 T02390182  RH  071%=      5-min Rain = 0
KTAS 250136Z 15019KT 24/18 A2989 RMK A01 T02380182  RH  071%=      5-min Rain = 0
KTAS 250137Z 15018KT 24/18 A2989 RMK A01 T02380182  RH  071%=      5-min Rain = 0
KTAS 250138Z 15016KT 24/18 A2989 RMK A01 T02380182  RH  071%=      5-min Rain = 0
KTAS 250139Z 15018KT 24/18 A2989 RMK A01 T02370182  RH  071%=      5-min Rain = 0
KTAS 250140Z 15018KT 24/18 A2989 RMK A01 T02370182  RH  071%=      5-min Rain = 0
KTAS 250141Z 16017KT 24/18 A2989 RMK A01 T02370182  RH  071%=      5-min Rain = 0
KTAS 250142Z 15016KT 24/18 A2989 RMK A01 T02370182  RH  071%=      5-min Rain = 0
KTAS 250143Z 15013KT 24/18 A2989 RMK A01 T02360182  RH  072%=      5-min Rain = 0
KTAS 250144Z 15012KT 24/18 A2989 RMK A01 T02350183  RH  072%=      5-min Rain = 0
KTAS 250145Z 15015KT 24/18 A2989 RMK A01 T02350183  RH  073%=      5-min Rain = 0
KTAS 250146Z 15014KT 24/18 A2989 RMK A01 T02350182  RH  072%=      5-min Rain = 0
KTAS 250147Z 15014KT 24/18 A2989 RMK A01 T02350182  RH  072%=      5-min Rain = 0
KTAS 250148Z 15015KT 24/18 A2989 RMK A01 T02350182  RH  072%=      5-min Rain = 0
KTAS 250149Z 15013KT 24/18 A299 RMK A01 T02350182  RH  072%=      5-min Rain = 0
KTAS 250150Z 15013KT 24/18 A299 RMK A01 T02350182  RH  072%=      5-min Rain = 0
KTAS 250151Z 15012KT 24/18 A299 RMK A01 T02350182  RH  072%=      5-min Rain = 0
KTAS 250152Z 15013KT 23/18 A299 RMK A01 T02340183  RH  073%=      5-min Rain = 0
KTAS 250153Z 15012KT 23/18 A299 RMK A01 T02340182  RH  073%=      5-min Rain = 0
KTAS 250154Z 15012KT 23/18 A299 RMK A01 T02340182  RH  073%=      5-min Rain = 0
KTAS 250155Z 15011KT 23/18 A299 RMK A01 T02330182  RH  073%=      5-min Rain = 0
KTAS 250156Z 15013KT 23/18 A299 RMK A01 T02330182  RH  073%=      5-min Rain = 0
KTAS 250157Z 15010KT 23/18 A299 RMK A01 T02330182  RH  073%=      5-min Rain = 0
KTAS 250158Z 15012KT 23/18 A299 RMK A01 T02320182  RH  073%=      5-min Rain = 0
KTAS 250159Z 15011KT 23/18 A299 RMK A01 T02320181  RH  073%=      5-min Rain = 0
KTAS 250200Z 15014KT 23/18 A299 RMK A01 T02320182  RH  073%=      5-min Rain = 0
KTAS 250201Z 15015KT 23/18 A299 RMK A01 T02320181  RH  073%=      5-min Rain = 0
KTAS 250202Z 15014KT 23/18 A2991 RMK A01 T02330181  RH  073%=      5-min Rain = 0
KTAS 250203Z 15013KT 23/18 A2991 RMK A01 T02330181  RH  072%=      5-min Rain = 0
KTAS 250204Z 15013KT 23/18 A2991 RMK A01 T02330181  RH  073%=      5-min Rain = 0
KTAS 250205Z 15013KT 23/18 A2991 RMK A01 T02330181  RH  073%=      5-min Rain = 0
KTAS 250206Z 15012KT 23/18 A2991 RMK A01 T02320181  RH  073%=      5-min Rain = 0
KTAS 250207Z 15011KT 23/18 A2991 RMK A01 T02320182  RH  073%=      5-min Rain = 0
KTAS 250208Z 15012KT 23/18 A2991 RMK A01 T02310181  RH  074%=      5-min Rain = 0
KTAS 250209Z 15012KT 23/18 A2991 RMK A01 T02310181  RH  073%=      5-min Rain = 0
KTAS 250210Z 15010KT 23/18 A2991 RMK A01 T02310181  RH  073%=      5-min Rain = 0
KTAS 250211Z 15009KT 23/18 A2991 RMK A01 T02310182  RH  074%=      5-min Rain = 0
KTAS 250212Z 15009KT 23/18 A2991 RMK A01 T02300182  RH  074%=      5-min Rain = 0
KTAS 250213Z 15010KT 23/18 A2991 RMK A01 T02300182  RH  074%=      5-min Rain = 0
KTAS 250214Z 15012KT 23/18 A2991 RMK A01 T02300182  RH  074%=      5-min Rain = 0
KTAS 250215Z 15010KT 23/18 A2991 RMK A01 T02300182  RH  074%=      5-min Rain = 0
KTAS 250216Z 15011KT 23/18 A2991 RMK A01 T02300181  RH  074%=      5-min Rain = 0
KTAS 250217Z 15009KT 23/18 A2991 RMK A01 T02300182  RH  074%=      5-min Rain = 0
KTAS 250218Z 15012KT 23/18 A2991 RMK A01 T02300182  RH  074%=      5-min Rain = 0
KTAS 250219Z 15010KT 23/18 A2991 RMK A01 T02310181  RH  074%=      5-min Rain = 0
KTAS 250220Z 15008KT 23/18 A2991 RMK A01 T02300182  RH  074%=      5-min Rain = 0
KTAS 250221Z 14007KT 23/18 A2991 RMK A01 T02290182  RH  075%=      5-min Rain = 0
KTAS 250222Z 14009KT 23/18 A2992 RMK A01 T02280182  RH  075%=      5-min Rain = 0
KTAS 250223Z 15008KT 23/18 A2992 RMK A01 T02280182  RH  075%=      5-min Rain = 0
KTAS 250224Z 15010KT 23/18 A2992 RMK A01 T02270182  RH  075%=      5-min Rain = 0
KTAS 250225Z 15009KT 23/18 A2992 RMK A01 T02270181  RH  075%=      5-min Rain = 0
KTAS 250226Z 14010KT 23/18 A2992 RMK A01 T02270182  RH  075%=      5-min Rain = 0
KTAS 250227Z 14009KT 23/18 A2992 RMK A01 T02280182  RH  075%=      5-min Rain = 0
KTAS 250228Z 14008KT 23/18 A2992 RMK A01 T02280182  RH  075%=      5-min Rain = 0
KTAS 250229Z 14008KT 23/18 A2992 RMK A01 T02280182  RH  075%=      5-min Rain = 0
KTAS 250230Z 14008KT 23/18 A2992 RMK A01 T02260182  RH  076%=      5-min Rain = 0
KTAS 250231Z 14008KT 23/18 A2992 RMK A01 T02260182  RH  076%=      5-min Rain = 0
KTAS 250232Z 14008KT 23/18 A2992 RMK A01 T02250182  RH  076%=      5-min Rain = 0
KTAS 250233Z 14007KT 23/18 A2992 RMK A01 T02250182  RH  077%=      5-min Rain = 0
KTAS 250234Z 14008KT 22/18 A2992 RMK A01 T02240182  RH  077%=      5-min Rain = 0
KTAS 250235Z 13007KT 22/18 A2992 RMK A01 T02240182  RH  077%=      5-min Rain = 0
KTAS 250236Z 13008KT 22/18 A2992 RMK A01 T02240182  RH  077%=      5-min Rain = 0
KTAS 250237Z 13008KT 22/18 A2992 RMK A01 T02230182  RH  078%=      5-min Rain = 0
KTAS 250238Z 14008KT 22/18 A2992 RMK A01 T02230182  RH  078%=      5-min Rain = 0
KTAS 250239Z 14006KT 22/18 A2992 RMK A01 T02230182  RH  077%=      5-min Rain = 0
KTAS 250240Z 14006KT 22/18 A2992 RMK A01 T02230182  RH  078%=      5-min Rain = 0
KTAS 250241Z 14007KT 22/18 A2992 RMK A01 T02220182  RH  078%=      5-min Rain = 0
KTAS 250242Z 14007KT 22/18 A2992 RMK A01 T02210182  RH  079%=      5-min Rain = 0
KTAS 250243Z 14007KT 22/18 A2992 RMK A01 T02210183  RH  079%=      5-min Rain = 0
KTAS 250244Z 13007KT 22/18 A2992 RMK A01 T02210182  RH  079%=      5-min Rain = 0
KTAS 250245Z 13007KT 22/18 A2992 RMK A01 T02210182  RH  079%=      5-min Rain = 0
KTAS 250246Z 14007KT 22/18 A2993 RMK A01 T02210183  RH  079%=      5-min Rain = 0
KTAS 250247Z 14008KT 22/18 A2993 RMK A01 T02200183  RH  079%=      5-min Rain = 0
KTAS 250248Z 13007KT 22/18 A2993 RMK A01 T02200183  RH  079%=      5-min Rain = 0
KTAS 250249Z 14007KT 22/18 A2993 RMK A01 T02200183  RH  080%=      5-min Rain = 0
KTAS 250250Z 13007KT 22/18 A2993 RMK A01 T02200183  RH  080%=      5-min Rain = 0
KTAS 250251Z 13007KT 22/18 A2993 RMK A01 T02190183  RH  080%=      5-min Rain = 0
KTAS 250252Z 13008KT 22/18 A2993 RMK A01 T02190183  RH  080%=      5-min Rain = 0
KTAS 250253Z 13008KT 22/18 A2993 RMK A01 T02180183  RH  080%=      5-min Rain = 0
KTAS 250254Z 12008KT 22/18 A2994 RMK A01 T02180183  RH  080%=      5-min Rain = 0
KTAS 250255Z 13008KT 22/18 A2994 RMK A01 T02190183  RH  080%=      5-min Rain = 0
KTAS 250256Z 12008KT 22/18 A2994 RMK A01 T02200183  RH  080%=      5-min Rain = 0
KTAS 250257Z 12006KT 22/18 A2994 RMK A01 T02200183  RH  079%=      5-min Rain = 0
KTAS 250258Z 11005KT 22/18 A2994 RMK A01 T02200182  RH  079%=      5-min Rain = 0
KTAS 250259Z 11005KT 22/18 A2994 RMK A01 T02190183  RH  080%=      5-min Rain = 0
KTAS 250300Z 09004KT 22/18 A2994 RMK A01 T02180182  RH  080%=      5-min Rain = 0
KTAS 250301Z 08004KT 22/18 A2994 RMK A01 T02170183  RH  081%=      5-min Rain = 0
KTAS 250302Z 08004KT 22/18 A2994 RMK A01 T02150182  RH  081%=      5-min Rain = 0
KTAS 250303Z 08004KT 21/18 A2994 RMK A01 T02140182  RH  082%=      5-min Rain = 0
KTAS 250304Z 08004KT 21/18 A2994 RMK A01 T02130182  RH  083%=      5-min Rain = 0
KTAS 250305Z 08005KT 21/18 A2994 RMK A01 T02120182  RH  083%=      5-min Rain = 0
KTAS 250306Z 08005KT 21/18 A2994 RMK A01 T02110182  RH  083%=      5-min Rain = 0
KTAS 250307Z 09005KT 21/18 A2994 RMK A01 T02100182  RH  084%=      5-min Rain = 0
KTAS 250308Z 09005KT 21/18 A2994 RMK A01 T02090182  RH  084%=      5-min Rain = 0
KTAS 250309Z 09005KT 21/18 A2994 RMK A01 T02090182  RH  084%=      5-min Rain = 0
KTAS 250310Z 09004KT 21/18 A2994 RMK A01 T02090182  RH  085%=      5-min Rain = 0
KTAS 250311Z 09005KT 21/18 A2994 RMK A01 T02080182  RH  085%=      5-min Rain = 0
KTAS 250312Z 08005KT 21/18 A2994 RMK A01 T02070181  RH  085%=      5-min Rain = 0
KTAS 250313Z 08004KT 21/18 A2994 RMK A01 T02070182  RH  085%=      5-min Rain = 0
KTAS 250314Z 08004KT 21/18 A2994 RMK A01 T02060182  RH  086%=      5-min Rain = 0
KTAS 250315Z 08004KT 21/18 A2995 RMK A01 T02050181  RH  086%=      5-min Rain = 0
KTAS 250316Z 08004KT 20/18 A2995 RMK A01 T02040181  RH  087%=      5-min Rain = 0
KTAS 250317Z 08004KT 20/18 A2995 RMK A01 T02030181  RH  087%=      5-min Rain = 0
KTAS 250318Z 08004KT 20/18 A2995 RMK A01 T02030181  RH  087%=      5-min Rain = 0
KTAS 250319Z 09005KT 20/18 A2995 RMK A01 T02020181  RH  088%=      5-min Rain = 0
KTAS 250320Z 10005KT 20/18 A2995 RMK A01 T02020181  RH  088%=      5-min Rain = 0
KTAS 250321Z 09006KT 20/18 A2995 RMK A01 T02020182  RH  088%=      5-min Rain = 0
KTAS 250322Z 09005KT 20/18 A2995 RMK A01 T02020182  RH  088%=      5-min Rain = 0
KTAS 250323Z 10005KT 20/18 A2995 RMK A01 T02020181  RH  088%=      5-min Rain = 0
KTAS 250324Z 10005KT 20/18 A2995 RMK A01 T02020182  RH  088%=      5-min Rain = 0
KTAS 250325Z 10005KT 20/18 A2995 RMK A01 T02020182  RH  088%=      5-min Rain = 0
KTAS 250326Z 11005KT 20/18 A2995 RMK A01 T02020182  RH  088%=      5-min Rain = 0
KTAS 250327Z 12005KT 20/18 A2995 RMK A01 T02020182  RH  088%=      5-min Rain = 0
KTAS 250328Z 12006KT 20/18 A2995 RMK A01 T02030182  RH  088%=      5-min Rain = 0
KTAS 250329Z 13007KT 21/18 A2995 RMK A01 T02050183  RH  087%=      5-min Rain = 0
KTAS 250330Z 13007KT 21/18 A2995 RMK A01 T02060183  RH  086%=      5-min Rain = 0
KTAS 250331Z 13008KT 21/18 A2995 RMK A01 T02080183  RH  086%=      5-min Rain = 0
KTAS 250332Z 13007KT 21/18 A2995 RMK A01 T02090183  RH  085%=      5-min Rain = 0
KTAS 250333Z 13007KT 21/18 A2995 RMK A01 T02100183  RH  084%=      5-min Rain = 0
KTAS 250334Z 13007KT 21/18 A2995 RMK A01 T02100183  RH  084%=      5-min Rain = 0
KTAS 250335Z 13008KT 21/18 A2995 RMK A01 T02100183  RH  084%=      5-min Rain = 0
KTAS 250336Z 12008KT 21/18 A2995 RMK A01 T02100182  RH  084%=      5-min Rain = 0
KTAS 250337Z 13008KT 21/18 A2995 RMK A01 T02100182  RH  084%=      5-min Rain = 0
KTAS 250338Z 12007KT 21/18 A2996 RMK A01 T02100182  RH  084%=      5-min Rain = 0
KTAS 250339Z 13007KT 21/18 A2996 RMK A01 T02110183  RH  084%=      5-min Rain = 0
KTAS 250340Z 12007KT 21/18 A2996 RMK A01 T02110183  RH  084%=      5-min Rain = 0
KTAS 250341Z 12007KT 21/18 A2996 RMK A01 T02110183  RH  084%=      5-min Rain = 0
KTAS 250342Z 12007KT 21/18 A2996 RMK A01 T02120182  RH  083%=      5-min Rain = 0
KTAS 250343Z 12009KT 21/18 A2996 RMK A01 T02120182  RH  083%=      5-min Rain = 0
KTAS 250344Z 12009KT 21/18 A2996 RMK A01 T02140182  RH  082%=      5-min Rain = 0
KTAS 250345Z 12007KT 22/18 A2996 RMK A01 T02150182  RH  082%=      5-min Rain = 0
KTAS 250346Z 11008KT 22/18 A2996 RMK A01 T02150182  RH  081%=      5-min Rain = 0
KTAS 250347Z 12008KT 22/18 A2996 RMK A01 T02150181  RH  081%=      5-min Rain = 0
KTAS 250348Z 11007KT 22/18 A2997 RMK A01 T02160181  RH  081%=      5-min Rain = 0
KTAS 250349Z 11007KT 22/18 A2997 RMK A01 T02160181  RH  080%=      5-min Rain = 0
KTAS 250350Z 10006KT 22/18 A2997 RMK A01 T02160181  RH  081%=      5-min Rain = 0
KTAS 250351Z 10005KT 21/18 A2997 RMK A01 T02140182  RH  082%=      5-min Rain = 0
KTAS 250352Z 09004KT 21/18 A2997 RMK A01 T02120182  RH  083%=      5-min Rain = 0
KTAS 250353Z 09006KT 21/18 A2997 RMK A01 T02100182  RH  084%=      5-min Rain = 0
KTAS 250354Z 10006KT 21/18 A2997 RMK A01 T02080182  RH  085%=      5-min Rain = 0
KTAS 250355Z 09007KT 21/18 A2997 RMK A01 T02070183  RH  086%=      5-min Rain = 0
KTAS 250356Z 09007KT 21/18 A2997 RMK A01 T02060183  RH  087%=      5-min Rain = 0
KTAS 250357Z 10007KT 21/18 A2997 RMK A01 T02060183  RH  087%=      5-min Rain = 0
KTAS 250358Z 08006KT 21/18 A2997 RMK A01 T02060183  RH  087%=      5-min Rain = 0
KTAS 250359Z 08006KT 21/18 A2997 RMK A01 T02050183  RH  087%=      5-min Rain = 0
KTAS 250400Z 08006KT 20/18 A2997 RMK A01 T02030182  RH  088%=      5-min Rain = 0
KTAS 250401Z 08006KT 20/18 A2998 RMK A01 T02020182  RH  088%=      5-min Rain = 0
KTAS 250402Z 08005KT 20/18 A2998 RMK A01 T02010182  RH  089%=      5-min Rain = 0
KTAS 250403Z 07006KT 20/18 A2998 RMK A01 T02000182  RH  089%=      5-min Rain = 0
KTAS 250404Z 07007KT 20/18 A2997 RMK A01 T01980181  RH  090%=      5-min Rain = 0
KTAS 250405Z 07008KT 20/18 A2998 RMK A01 T01970180  RH  090%=      5-min Rain = 0
KTAS 250406Z 07009KT 20/18 A2998 RMK A01 T01950178  RH  090%=      5-min Rain = 0
KTAS 250407Z 07009KT 19/18 A2998 RMK A01 T01940177  RH  090%=      5-min Rain = 0
KTAS 250408Z 08008KT 19/18 A2998 RMK A01 T01930176  RH  090%=      5-min Rain = 0
KTAS 250409Z 08008KT 19/18 A2998 RMK A01 T01930176  RH  090%=      5-min Rain = 0
KTAS 250410Z 07008KT 19/18 A2998 RMK A01 T01920176  RH  090%=      5-min Rain = 0
KTAS 250411Z 08008KT 19/18 A2998 RMK A01 T01920176  RH  091%=      5-min Rain = 0
KTAS 250412Z 08008KT 19/18 A2998 RMK A01 T01910176  RH  091%=      5-min Rain = 0
KTAS 250413Z 09008KT 19/18 A2998 RMK A01 T01910176  RH  091%=      5-min Rain = 0
KTAS 250414Z 09007KT 19/18 A2998 RMK A01 T01920177  RH  091%=      5-min Rain = 0
KTAS 250415Z 08008KT 19/18 A2998 RMK A01 T01920178  RH  091%=      5-min Rain = 0
KTAS 250416Z 09007KT 19/18 A2998 RMK A01 T01930178  RH  091%=      5-min Rain = 0
KTAS 250417Z 09007KT 19/18 A2998 RMK A01 T01930179  RH  091%=      5-min Rain = 0
KTAS 250418Z 08006KT 19/18 A2998 RMK A01 T01930179  RH  092%=      5-min Rain = 0
KTAS 250419Z 09007KT 19/18 A2998 RMK A01 T01940180  RH  092%=      5-min Rain = 0
KTAS 250420Z 09007KT 19/18 A2998 RMK A01 T01940181  RH  092%=      5-min Rain = 0
KTAS 250421Z 09008KT 20/18 A2998 RMK A01 T01950181  RH  092%=      5-min Rain = 0
KTAS 250422Z 08008KT 20/18 A2998 RMK A01 T01960181  RH  091%=      5-min Rain = 0
KTAS 250423Z 08009KT 20/18 A2998 RMK A01 T01960181  RH  091%=      5-min Rain = 0
KTAS 250424Z 07009KT 20/18 A2998 RMK A01 T01970182  RH  091%=      5-min Rain = 0
KTAS 250425Z 08008KT 20/18 A2998 RMK A01 T01970181  RH  091%=      5-min Rain = 0
KTAS 250426Z 08007KT 20/18 A2998 RMK A01 T01970182  RH  091%=      5-min Rain = 0
KTAS 250427Z 09008KT 20/18 A2998 RMK A01 T01970182  RH  091%=      5-min Rain = 0
KTAS 250428Z 09007KT 20/18 A2998 RMK A01 T01980182  RH  090%=      5-min Rain = 0
KTAS 250429Z 08008KT 20/18 A2998 RMK A01 T01980182  RH  090%=      5-min Rain = 0
KTAS 250430Z 08007KT 20/18 A2998 RMK A01 T01980182  RH  090%=      5-min Rain = 0
KTAS 250431Z 08007KT 20/18 A2998 RMK A01 T01980182  RH  090%=      5-min Rain = 0
KTAS 250432Z 09007KT 20/18 A2998 RMK A01 T01980182  RH  091%=      5-min Rain = 0
KTAS 250433Z 09006KT 20/18 A2998 RMK A01 T01980182  RH  090%=      5-min Rain = 0
KTAS 250434Z 09007KT 20/18 A2998 RMK A01 T01980182  RH  090%=      5-min Rain = 0
KTAS 250435Z 09007KT 20/18 A2998 RMK A01 T01990182  RH  090%=      5-min Rain = 0
KTAS 250436Z 08007KT 20/18 A2998 RMK A01 T01990182  RH  090%=      5-min Rain = 0
KTAS 250437Z 09006KT 20/18 A2998 RMK A01 T02000182  RH  090%=      5-min Rain = 0
KTAS 250438Z 09005KT 20/18 A2998 RMK A01 T02000182  RH  090%=      5-min Rain = 0
KTAS 250439Z 08007KT 20/18 A2998 RMK A01 T01990182  RH  090%=      5-min Rain = 0
KTAS 250440Z 08007KT 20/18 A2998 RMK A01 T02000183  RH  090%=      5-min Rain = 0
KTAS 250441Z 08007KT 20/18 A2998 RMK A01 T02000183  RH  090%=      5-min Rain = 0
KTAS 250442Z 09005KT 20/18 A2998 RMK A01 T02010183  RH  090%=      5-min Rain = 0
KTAS 250443Z 09006KT 20/18 A2998 RMK A01 T02000183  RH  090%=      5-min Rain = 0
KTAS 250444Z 09005KT 20/18 A2998 RMK A01 T02010183  RH  090%=      5-min Rain = 0
KTAS 250445Z 09005KT 20/18 A2998 RMK A01 T02010183  RH  089%=      5-min Rain = 0
KTAS 250446Z 09006KT 20/18 A2998 RMK A01 T02010183  RH  089%=      5-min Rain = 0
KTAS 250447Z 09006KT 20/18 A2998 RMK A01 T02010183  RH  089%=      5-min Rain = 0
KTAS 250448Z 09008KT 20/18 A2998 RMK A01 T02010183  RH  090%=      5-min Rain = 0
KTAS 250449Z 10006KT 20/18 A2998 RMK A01 T02010183  RH  090%=      5-min Rain = 0
KTAS 250450Z 09006KT 20/18 A2998 RMK A01 T02010183  RH  089%=      5-min Rain = 0
KTAS 250451Z 09006KT 20/18 A2998 RMK A01 T02010183  RH  089%=      5-min Rain = 0
KTAS 250452Z 09008KT 20/18 A2998 RMK A01 T02010183  RH  089%=      5-min Rain = 0
KTAS 250453Z 10007KT 20/18 A2998 RMK A01 T02020183  RH  089%=      5-min Rain = 0
KTAS 250454Z 10008KT 20/18 A2998 RMK A01 T02020183  RH  089%=      5-min Rain = 0
KTAS 250455Z 10009KT 20/18 A2998 RMK A01 T02020183  RH  089%=      5-min Rain = 0
KTAS 250456Z 10009KT 20/18 A2998 RMK A01 T02020184  RH  089%=      5-min Rain = 0
KTAS 250457Z 10008KT 20/18 A2998 RMK A01 T02030184  RH  089%=      5-min Rain = 0
KTAS 250458Z 10008KT 20/18 A2998 RMK A01 T02030184  RH  088%=      5-min Rain = 0
KTAS 250459Z 10006KT 20/18 A2998 RMK A01 T02030183  RH  088%=      5-min Rain = 0

Page generated in 0.2007 seconds.